Return to Metar
METAR CYNL 220800Z AUTO ///// 9SM CLR M27/M31 A3018 RMK AO1 SLP309
METAR CYNL 220700Z AUTO ///// 9SM CLR M27/M31 A3019 RMK AO1 SLP308
METAR CYNL 220600Z AUTO ///// 9SM CLR M28/M32 A3018 RMK AO1 SLP308
METAR CYNL 220500Z AUTO ///// 9SM CLR M28/M32 A3017 RMK AO1 SLP308
METAR CYNL 220400Z AUTO 09002KT 9SM CLR M27/M30 A3018 RMK AO1 SLP311
METAR CYNL 220300Z AUTO 00000KT 9SM CLR M27/M30 A3017 RMK AO1 SLP311
METAR CYNL 220200Z AUTO 00000KT 9SM CLR M26/M30 A3016 RMK AO1 SLP307
METAR CYNL 220100Z AUTO ///// 9SM CLR M26/M29 A3016 RMK AO1 SLP304
METAR CYNL 220000Z AUTO ///// 9SM CLR M25/M28 A3016 RMK AO1 SLP304
METAR CYNL 212300Z AUTO 09004KT 9SM CLR M23/M27 A3016 RMK AO1 SLP299
METAR CYNL 212200Z AUTO 08006KT 9SM CLR M21/M25 A3014 RMK AO1 SLP289
METAR CYNL 212100Z AUTO 07005KT 9SM CLR M20/M24 A3014 RMK AO1 SLP284
METAR CYNL 212000Z AUTO 11005KT 9SM CLR M18/M22 A3012 RMK AO1 SLP275
METAR CYNL 211900Z AUTO 13005KT 9SM CLR M19/M22 A3012 RMK AO1 SLP275
SPECI CYNL 211809Z AUTO 10004KT 3SM CLR M21/M24 A3012 RMK AO1 SLP275
SPECI CYNL 211808Z AUTO 10004KT 1SM CLR M21/M25 A3012 RMK AO1 SLP275
SPECI CYNL 211806Z AUTO 10004KT 5/8SM CLR M21/M25 A3012 RMK AO1 SLP276
METAR CYNL 211800Z AUTO 09003KT 9SM CLR M21/M25 A3012 RMK AO1 SLP277
SPECI CYNL 211718Z AUTO 06003KT 3SM CLR M23/M27 A3012 RMK AO1 SLP280
SPECI CYNL 211717Z AUTO 06003KT 1 3/4SM CLR M23/M27 A3012 RMK AO1 SLP280
SPECI CYNL 211715Z AUTO 06003KT 1SM CLR M23/M27 A3012 RMK AO1 SLP280
SPECI CYNL 211714Z AUTO 06003KT 1 1/2SM CLR M23/M27 A3012 RMK AO1 SLP279
METAR CYNL 211700Z AUTO 07003KT 9SM CLR M24/M27 A3011 RMK AO1 SLP276
SPECI CYNL 211623Z AUTO 08004KT 9SM CLR M25/M28 A3011 RMK AO1 SLP276
SPECI CYNL 211622Z AUTO 08004KT 1SM CLR M25/M28 A3011 RMK AO1 SLP275
SPECI CYNL 211618Z AUTO 07003KT 3/8SM CLR M25/M28 A3011 RMK AO1 SLP276
SPECI CYNL 211617Z AUTO 06003KT 1 3/4SM CLR M25/M28 A3011 RMK AO1 SLP276
METAR CYNL 211600Z AUTO 05003KT 9SM CLR M25/M28 A3010 RMK AO1 SLP275
SPECI CYNL 211510Z AUTO ///// 4SM CLR M25/M28 A3009 RMK AO1 SLP269
SPECI CYNL 211508Z AUTO ///// 2SM CLR M25/M28 A3009 RMK AO1 SLP269
SPECI CYNL 211504Z AUTO ///// 1 1/4SM CLR M25/M28 A3009 RMK AO1 SLP269
SPECI CYNL 211503Z AUTO ///// 1 3/4SM CLR M25/M28 A3009 RMK AO1 SLP269
METAR CYNL 211500Z AUTO ///// 9SM CLR M25/M28 A3009 RMK AO1 SLP269
METAR CYNL 211400Z AUTO 06005KT 9SM CLR M24/M27 A3008 RMK AO1 SLP266
METAR CYNL 211300Z AUTO 09005KT 9SM CLR M24/M27 A3007 RMK AO1 SLP261
METAR CYNL 211200Z AUTO 06004KT 9SM CLR M23/M27 A3005 RMK AO1 SLP255
METAR CYNL 211100Z AUTO 08003KT 9SM CLR M23/M26 A3004 RMK AO1 SLP248
METAR CYNL 211000Z AUTO 09005KT 9SM FEW009 M21/M24 A3003 RMK AO1 SLP243
SPECI CYNL 210942Z AUTO 10004KT 9SM SCT009 M21/M24 A3003 RMK AO1 SLP241
SPECI CYNL 210940Z AUTO 10004KT 9SM VV010 M21/M24 A3002 RMK AO1 SLP241
SPECI CYNL 210935Z AUTO 10004KT 9SM VV008 M20/M23 A3002 RMK AO1 SLP240
SPECI CYNL 210930Z AUTO 10005KT 9SM FEW008 M20/M23 A3002 RMK AO1 SLP240
METAR CYNL 210900Z AUTO 10005KT 9SM CLR M20/M22 A3002 RMK AO1 SLP237
SPECI CYNL 210833Z AUTO 09005KT 9SM SCT014 M19/M22 A3001 RMK AO1 SLP233
SPECI CYNL 210831Z AUTO 09005KT 9SM BKN014 M19/M22 A3001 RMK AO1 SLP233
METAR CYNL 210800Z AUTO 12007KT 9SM CLR M18/M21 A3000 RMK AO1 SLP228
METAR CYNL 210700Z AUTO 11007KT 9SM OVC096 M17/M20 A2998 RMK AO1 SLP223
METAR CYNL 210600Z AUTO 11007KT 9SM FEW017 SCT025 OVC092 M18/M20 A2998 RMK AO1 PRESRR SLP221
SPECI CYNL 210553Z AUTO 12007KT 9SM SCT016 OVC092 M18/M20 A2997 RMK AO1 SLP221
SPECI CYNL 210552Z AUTO 12007KT 9SM SCT016 BKN025 OVC092 M18/M20 A2997 RMK AO1 SLP221
SPECI CYNL 210526Z AUTO 11005KT 9SM VV015 M18/M20 A2997 RMK AO1 SLP218
SPECI CYNL 210524Z AUTO 12006KT 9SM VV014 M18/M20 A2996 RMK AO1 SLP218
SPECI CYNL 210511Z AUTO 12006KT 9SM VV024 M18/M20 A2996 RMK AO1 SLP217
SPECI CYNL 210503Z AUTO 13006KT 8SM VV029 M18/M20 A2996 RMK AO1 SLP215
METAR CYNL 210500Z AUTO 13005KT 9SM VV032 M18/M20 A2996 RMK AO1 SLP215
SPECI CYNL 210444Z AUTO 13006KT 8SM VV033 M18/M20 A2996 RMK AO1 SLP216
SPECI CYNL 210442Z AUTO 13005KT 7SM VV025 M18/M20 A2996 RMK AO1 SLP216
SPECI CYNL 210410Z AUTO ///// 6SM VV020 M18/M20 A2994 RMK AO1 SLP210
METAR CYNL 210400Z AUTO ///// 8SM CLR M18/M20 A2994 RMK AO1 SLP209
METAR CYNL 210300Z AUTO ///// 9SM FEW066 SCT092 M18/M20 A2992 RMK AO1 SLP205
METAR CYNL 210200Z AUTO 12008KT 9SM OVC092 M17/M20 A2991 RMK AO1 SLP201
SPECI CYNL 210118Z AUTO 12006KT 4SM SCT012 OVC094 M17/M20 A2990 RMK AO1 SLP197
SPECI CYNL 210115Z AUTO 12008KT 4SM FEW008 SCT012 BKN016 M17/M20 A2990 RMK AO1 SLP197
SPECI CYNL 210111Z AUTO 12008KT 3SM FEW008 BKN012 BKN016 M17/M20 A2990 RMK AO1 SLP197
SPECI CYNL 210104Z AUTO 11006KT 4SM VV014 M17/M20 A2990 RMK AO1 SLP197
METAR CYNL 210100Z AUTO 11007KT 4SM VV016 M17/M20 A2990 RMK AO1 SLP196
SPECI CYNL 210057Z AUTO 10005KT 4SM VV015 M17/M20 A2990 RMK AO1 PRESRR SLP197
SPECI CYNL 210051Z AUTO ///// 3SM VV010 M17/M20 A2990 RMK AO1 PRESRR SLP196
SPECI CYNL 210050Z AUTO 11006KT 3SM VV009 M17/M20 A2990 RMK AO1 PRESRR SLP196
SPECI CYNL 210049Z AUTO 11008KT 3SM VV010 M17/M20 A2989 RMK AO1 PRESRR SLP196
SPECI CYNL 210028Z AUTO 11008KT 2 1/2SM VV014 M17/M20 A2989 RMK AO1 PRESRR SLP194
SPECI CYNL 210022Z AUTO 10006KT 2 1/2SM VV016 M17/M20 A2989 RMK AO1 PRESRR SLP193
SPECI CYNL 210003Z AUTO 09005KT 3SM VV019 M17/M20 A2989 RMK AO1 PRESRR SLP192
METAR CYNL 210000Z AUTO 10005KT 2 1/2SM VV017 M17/M20 A2989 RMK AO1 PRESRR SLP192
SPECI CYNL 202357Z AUTO 10005KT 2 1/2SM VV015 M17/M20 A2988 RMK AO1 SLP193
SPECI CYNL 202339Z AUTO 11005KT 2 1/2SM VV014 M17/M20 A2988 RMK AO1 SLP191
SPECI CYNL 202325Z AUTO 13005KT 2 1/2SM VV018 M17/M20 A2987 RMK AO1 SLP189
SPECI CYNL 202318Z AUTO 12005KT 4SM VV024 M17/M20 A2987 RMK AO1 SLP189
SPECI CYNL 202314Z AUTO 11006KT 5SM VV029 M17/M20 A2987 RMK AO1 SLP188
SPECI CYNL 202308Z AUTO 12006KT 5SM VV030 M17/M20 A2987 RMK AO1 SLP187
SPECI CYNL 202304Z AUTO 12005KT 4SM VV025 M17/M20 A2987 RMK AO1 SLP186
METAR CYNL 202300Z AUTO 12006KT 3SM VV022 M17/M20 A2986 RMK AO1 SLP186
SPECI CYNL 202259Z AUTO 12006KT 3SM VV021 M17/M20 A2986 RMK AO1 SLP186
SPECI CYNL 202244Z AUTO 12005KT 2 1/2SM VV020 M17/M20 A2986 RMK AO1 SLP183
SPECI CYNL 202229Z AUTO 12006KT 3SM VV024 M17/M20 A2985 RMK AO1 SLP180
SPECI CYNL 202226Z AUTO 13007KT 4SM VV025 M17/M20 A2985 RMK AO1 SLP180
SPECI CYNL 202215Z AUTO 13005KT 3SM VV020 M17/M19 A2985 RMK AO1 SLP181
SPECI CYNL 202210Z AUTO 12006KT 2SM VV018 M17/M20 A2985 RMK AO1 SLP181
SPECI CYNL 202205Z AUTO 12006KT 1 3/4SM VV016 M17/M19 A2985 RMK AO1 SLP181
METAR CYNL 202200Z AUTO 11007KT 2SM VV017 M17/M19 A2985 RMK AO1 SLP180
SPECI CYNL 202157Z AUTO 12004KT 2 1/2SM VV019 M17/M19 A2985 RMK AO1 SLP181
SPECI CYNL 202155Z AUTO 13005KT 3SM VV020 M17/M19 A2985 RMK AO1 SLP180
SPECI CYNL 202153Z AUTO 13006KT 2 1/2SM VV020 M17/M19 A2984 RMK AO1 SLP180
SPECI CYNL 202152Z AUTO 12006KT 3SM VV020 M17/M19 A2984 RMK AO1 SLP179
SPECI CYNL 202149Z AUTO 12006KT 2 1/2SM VV021 M17/M19 A2984 RMK AO1 SLP179
SPECI CYNL 202147Z AUTO 12007KT 3SM VV024 M17/M19 A2984 RMK AO1 SLP179
SPECI CYNL 202143Z AUTO 12007KT 5SM VV029 M17/M19 A2984 RMK AO1 SLP179
SPECI CYNL 202130Z AUTO 12007KT 4SM VV031 M17/M20 A2984 RMK AO1 SLP179
SPECI CYNL 202128Z AUTO 12005KT 4SM VV028 M17/M20 A2984 RMK AO1 SLP179
SPECI CYNL 202112Z AUTO 11005KT 3SM VV018 M17/M20 A2983 RMK AO1 SLP177
SPECI CYNL 202109Z AUTO 11006KT 2 1/2SM VV018 M17/M20 A2983 RMK AO1 SLP176
SPECI CYNL 202101Z AUTO 12007KT 6SM VV023 M17/M20 A2983 RMK AO1 SLP175
METAR CYNL 202100Z AUTO 12007KT 6SM VV025 M17/M20 A2983 RMK AO1 SLP175
SPECI CYNL 202053Z AUTO 12006KT 3SM VV025 M17/M19 A2983 RMK AO1 SLP175
SPECI CYNL 202051Z AUTO 12005KT 3SM VV021 M17/M19 A2983 RMK AO1 SLP176
SPECI CYNL 202038Z AUTO 12006KT 2 1/2SM VV021 M17/M20 A2983 RMK AO1 SLP174
SPECI CYNL 202035Z AUTO 11007KT 3SM VV024 M17/M20 A2982 RMK AO1 SLP174
SPECI CYNL 202034Z AUTO 11007KT 3SM VV025 M17/M20 A2982 RMK AO1 SLP173
SPECI CYNL 202029Z AUTO 13007KT 2 1/2SM VV026 M17/M20 A2982 RMK AO1 SLP173
SPECI CYNL 202022Z AUTO 12006KT 4SM VV029 M17/M20 A2982 RMK AO1 SLP172
METAR CYNL 202000Z AUTO 12007KT 5SM FEW020 SCT029 BKN040 M17/M20 A2982 RMK AO1 SLP171
SPECI CYNL 201942Z AUTO 14007KT 8SM VV031 M17/M20 A2982 RMK AO1 SLP171
SPECI CYNL 201940Z AUTO 14006KT 8SM VV025 M17/M20 A2982 RMK AO1 SLP171
SPECI CYNL 201907Z AUTO 12006KT 4SM VV024 M17/M20 A2981 RMK AO1 SLP171
SPECI CYNL 201903Z AUTO 12006KT 3SM VV025 M17/M20 A2981 RMK AO1 SLP171
METAR CYNL 201900Z AUTO 13007KT 2SM VV025 M17/M20 A2981 RMK AO1 SLP171
SPECI CYNL 201858Z AUTO 12007KT 2 1/2SM VV025 M17/M20 A2981 RMK AO1 SLP171
SPECI CYNL 201854Z AUTO 11006KT 5SM VV029 M17/M20 A2981 RMK AO1 SLP170
SPECI CYNL 201844Z AUTO 13006KT 3SM VV032 M17/M20 A2981 RMK AO1 SLP170
SPECI CYNL 201843Z AUTO 12006KT 2 1/2SM VV031 M17/M20 A2981 RMK AO1 SLP170
SPECI CYNL 201841Z AUTO 12006KT 2 1/2SM VV026 M17/M20 A2981 RMK AO1 SLP170
SPECI CYNL 201834Z AUTO 12004KT 2SM VV019 M18/M20 A2981 RMK AO1 SLP171
SPECI CYNL 201818Z AUTO 12006KT 1 3/4SM VV020 M18/M21 A2981 RMK AO1 SLP170
SPECI CYNL 201815Z AUTO 12006KT 2SM VV021 M18/M21 A2981 RMK AO1 SLP170
SPECI CYNL 201813Z AUTO 13006KT 1 3/4SM VV022 M18/M21 A2981 RMK AO1 SLP170
SPECI CYNL 201810Z AUTO 12007KT 2 1/2SM VV024 M18/M21 A2981 RMK AO1 SLP171
SPECI CYNL 201809Z AUTO 12006KT 3SM VV024 M18/M21 A2981 RMK AO1 SLP171
SPECI CYNL 201803Z AUTO 13007KT 5SM VV029 M18/M21 A2981 RMK AO1 SLP171
METAR CYNL 201800Z AUTO 13006KT 4SM VV034 M18/M21 A2981 RMK AO1 SLP171
SPECI CYNL 201746Z AUTO 13007KT 7SM VV031 M18/M21 A2981 RMK AO1 SLP171
SPECI CYNL 201737Z AUTO 12008KT 4SM VV025 M18/M21 A2981 RMK AO1 SLP171
SPECI CYNL 201717Z AUTO 13007KT 3SM VV018 M18/M21 A2980 RMK AO1 SLP168
SPECI CYNL 201716Z AUTO 13007KT 3SM SCT005 BKN008 BKN012 M18/M21 A2980 RMK AO1 SLP168
SPECI CYNL 201713Z AUTO 13005KT 2SM BKN005 OVC008 M19/M21 A2980 RMK AO1 SLP167
SPECI CYNL 201711Z AUTO ///// 1 1/2SM BKN005 OVC008 M19/M21 A2979 RMK AO1 SLP167
SPECI CYNL 201706Z AUTO 14008KT 1 1/4SM OVC005 M19/M21 A2979 RMK AO1 SLP167
SPECI CYNL 201704Z AUTO ///// 1 3/4SM OVC005 M19/M21 A2979 RMK AO1 SLP167
SPECI CYNL 201702Z AUTO ///// 2 1/2SM OVC005 M19/M22 A2979 RMK AO1 SLP167
METAR CYNL 201700Z AUTO ///// 3SM OVC005 M19/M22 A2979 RMK AO1 SLP167
METAR CYNL 201600Z AUTO 12007KT 9SM OVC006 M19/M22 A2979 RMK AO1 SLP168
METAR CYNL 201500Z AUTO 12007KT 9SM OVC005 M20/M22 A2977 RMK AO1 SLP162
SPECI CYNL 201406Z AUTO 13007KT 9SM OVC005 M20/M22 A2977 RMK AO1 SLP160
METAR CYNL 201400Z AUTO 14006KT 9SM OVC004 M20/M22 A2976 RMK AO1 SLP159
METAR CYNL 201300Z AUTO 13005KT 7SM OVC003 M20/M23 A2976 RMK AO1 SLP156
SPECI CYNL 201250Z AUTO 15004KT 5SM OVC003 M20/M23 A2976 RMK AO1 SLP156
SPECI CYNL 201248Z AUTO 14004KT 2 1/2SM OVC003 M20/M23 A2976 RMK AO1 SLP155
SPECI CYNL 201245Z AUTO 14003KT 4SM OVC003 M20/M23 A2975 RMK AO1 SLP155
SPECI CYNL 201244Z AUTO 14004KT 2 1/2SM OVC003 M20/M23 A2975 RMK AO1 SLP155
SPECI CYNL 201240Z AUTO 15005KT 2 1/2SM OVC002 M20/M23 A2975 RMK AO1 SLP154
SPECI CYNL 201237Z AUTO 14006KT 1 3/4SM OVC002 M20/M23 A2975 RMK AO1 SLP154
SPECI CYNL 201233Z AUTO 12005KT 2 1/2SM OVC002 M20/M23 A2975 RMK AO1 SLP153
SPECI CYNL 201227Z AUTO 12006KT 1 3/4SM OVC002 M20/M23 A2974 RMK AO1 SLP151
SPECI CYNL 201224Z AUTO 13004KT 2SM OVC002 M20/M23 A2974 RMK AO1 SLP151
SPECI CYNL 201222Z AUTO 12005KT 1 3/4SM OVC002 M20/M23 A2974 RMK AO1 SLP151
SPECI CYNL 201218Z AUTO 11006KT 1 1/4SM OVC002 M20/M23 A2974 RMK AO1 SLP151
SPECI CYNL 201215Z AUTO 12005KT 1 1/2SM OVC002 M20/M23 A2974 RMK AO1 SLP151
SPECI CYNL 201210Z AUTO 12005KT 1SM OVC002 M20/M23 A2974 RMK AO1 SLP150
SPECI CYNL 201209Z AUTO 12005KT 1 1/2SM OVC002 M20/M23 A2974 RMK AO1 SLP150
SPECI CYNL 201208Z AUTO 12005KT 1 1/4SM OVC002 M20/M23 A2974 RMK AO1 SLP150
SPECI CYNL 201205Z AUTO 13005KT 1 1/2SM OVC002 M20/M23 A2974 RMK AO1 SLP150
METAR CYNL 201200Z AUTO 12004KT 1 1/4SM OVC002 M20/M23 A2974 RMK AO1 SLP151
SPECI CYNL 201154Z AUTO 12004KT 1 1/4SM OVC002 M20/M23 A2974 RMK AO1 SLP149
SPECI CYNL 201153Z AUTO 11004KT 1 1/2SM OVC002 M20/M23 A2974 RMK AO1 SLP149
SPECI CYNL 201143Z AUTO 10004KT 1SM OVC002 M21/M23 A2974 RMK AO1 SLP148
SPECI CYNL 201142Z AUTO 10004KT 3/4SM OVC002 M21/M23 A2974 RMK AO1 SLP148
SPECI CYNL 201140Z AUTO 10003KT 1SM OVC002 M21/M23 A2974 RMK AO1 SLP148
SPECI CYNL 201138Z AUTO 10003KT 3/4SM OVC002 M21/M24 A2974 RMK AO1 SLP148
SPECI CYNL 201137Z AUTO 11003KT 5/8SM OVC002 M21/M24 A2974 RMK AO1 SLP148
SPECI CYNL 201131Z AUTO 10003KT 3/4SM OVC002 M21/M24 A2974 RMK AO1 SLP150
SPECI CYNL 201125Z AUTO 11003KT 5/8SM OVC002 M21/M24 A2974 RMK AO1 SLP149
SPECI CYNL 201123Z AUTO 12003KT 1SM OVC002 M21/M24 A2974 RMK AO1 SLP149
SPECI CYNL 201121Z AUTO 12004KT 3/4SM OVC002 M21/M24 A2974 RMK AO1 SLP148
SPECI CYNL 201120Z AUTO 12004KT 1SM OVC002 M21/M24 A2974 RMK AO1 SLP148
SPECI CYNL 201119Z AUTO 11004KT 1 1/2SM OVC002 M21/M24 A2974 RMK AO1 SLP148
SPECI CYNL 201118Z AUTO 11004KT 1 1/4SM OVC002 M21/M24 A2974 RMK AO1 SLP149
SPECI CYNL 201117Z AUTO 11003KT 1 1/2SM OVC002 M21/M24 A2974 RMK AO1 SLP150
SPECI CYNL 201114Z AUTO 11003KT 1SM OVC002 M21/M24 A2974 RMK AO1 SLP151
SPECI CYNL 201110Z AUTO 09003KT 3/4SM OVC002 M21/M24 A2974 RMK AO1 SLP151
METAR CYNL 201100Z AUTO 14003KT 1/2SM OVC002 M21/M24 A2974 RMK AO1 SLP150
SPECI CYNL 201059Z AUTO 14003KT 5/8SM OVC002 M21/M24 A2974 RMK AO1 SLP150
SPECI CYNL 201056Z AUTO 13003KT 3/4SM OVC002 M21/M24 A2974 RMK AO1 SLP149
SPECI CYNL 201023Z AUTO 12003KT 5/8SM OVC002 M21/M24 A2973 RMK AO1 SLP146
SPECI CYNL 201022Z AUTO 12003KT 3/4SM OVC002 M21/M24 A2973 RMK AO1 SLP145
METAR CYNL 201000Z AUTO 12003KT 1/2SM OVC002 M21/M24 A2974 RMK AO1 SLP147
SPECI CYNL 200907Z AUTO 13004KT 1/2SM OVC002 M22/M25 A2973 RMK AO1 SLP144
SPECI CYNL 200906Z AUTO 13005KT 1/2SM OVC003 M22/M25 A2973 RMK AO1 SLP144
SPECI CYNL 200904Z AUTO 13004KT 1 1/4SM OVC003 M22/M25 A2973 RMK AO1 SLP144
SPECI CYNL 200903Z AUTO 13003KT 2 1/2SM OVC003 M22/M25 A2973 RMK AO1 SLP144
METAR CYNL 200900Z AUTO 12004KT 3SM OVC003 M22/M25 A2973 RMK AO1 SLP144
METAR CYNL 200800Z AUTO 10003KT 9SM OVC004 M22/M25 A2974 RMK AO1 PRESRR SLP149
SPECI CYNL 200728Z AUTO 13004KT 9SM BKN004 OVC006 M22/M26 A2973 RMK AO1 SLP143
METAR CYNL 200700Z AUTO 12004KT 9SM OVC006 M22/M26 A2972 RMK AO1 SLP140
SPECI CYNL 200613Z AUTO 12006KT 9SM OVC005 M23/M26 A2970 RMK AO1 SLP135
METAR CYNL 200600Z AUTO 12006KT 9SM OVC004 M23/M26 A2970 RMK AO1 SLP134
SPECI CYNL 200532Z AUTO 10005KT 9SM BKN004 OVC006 M23/M26 A2970 RMK AO1 SLP134
METAR CYNL 200500Z AUTO 09005KT 9SM OVC006 M23/M26 A2969 RMK AO1 SLP129
METAR CYNL 200400Z AUTO 11006KT 9SM OVC005 M23/M26 A2967 RMK AO1 SLP123
SPECI CYNL 200311Z AUTO 08005KT 9SM BKN009 M24/M27 A2966 RMK AO1 SLP119
SPECI CYNL 200308Z AUTO 08005KT 9SM BKN010 M24/M27 A2966 RMK AO1 SLP119
METAR CYNL 200300Z AUTO 08005KT 9SM SCT009 M24/M27 A2966 RMK AO1 SLP119
METAR CYNL 200200Z AUTO 09005KT 9SM FEW008 M23/M26 A2964 RMK AO1 SLP110
METAR CYNL 200100Z AUTO 07006KT 9SM CLR M23/M26 A2963 RMK AO1 SLP108
METAR CYNL 200000Z AUTO 07006KT 9SM CLR M22/M25 A2962 RMK AO1 PRESRR SLP104
SPECI CYNL 192330Z AUTO 07007KT 9SM SCT007 M21/M25 A2961 RMK AO1 PRESRR SLP098
METAR CYNL 192300Z AUTO 07005KT 9SM OVC006 M21/M24 A2960 RMK AO1 PRESRR SLP092
SPECI CYNL 192237Z AUTO 07007KT 9SM VV006 M21/M24 A2959 RMK AO1 SLP089
SPECI CYNL 192224Z AUTO 07006KT 9SM FEW006 M20/M23 A2958 RMK AO1 SLP086
METAR CYNL 192200Z AUTO 08008KT 9SM FEW170 M20/M23 A2958 RMK AO1 SLP083
METAR CYNL 192100Z AUTO ///// 9SM CLR M19/M22 A2956 RMK AO1 SLP075
METAR CYNL 192000Z AUTO ///// 9SM CLR M19/M22 A2954 RMK AO1 SLP069
METAR CYNL 191900Z AUTO 07006KT 9SM CLR M19/M22 A2953 RMK AO1 SLP065
METAR CYNL 191800Z AUTO 08007KT 9SM CLR M18/M21 A2952 RMK AO1 SLP060
METAR CYNL 191700Z AUTO ///// 9SM CLR M18/M21 A2951 RMK AO1 PRESRR SLP055
SPECI CYNL 191617Z AUTO ///// 6SM FEW006 SCT007 M17/M20 A2949 RMK AO1 PRESRR SLP048
METAR CYNL 191600Z AUTO ///// 4SM VV009 M17/M19 A2949 RMK AO1 PRESRR SLP045
SPECI CYNL 191558Z AUTO ///// 4SM VV008 M17/M19 A2949 RMK AO1 PRESRR SLP045
SPECI CYNL 191529Z AUTO ///// 9SM FEW006 SCT009 M16/M19 A2948 RMK AO1 SLP041
SPECI CYNL 191525Z AUTO ///// 9SM SCT006 BKN011 M16/M19 A2947 RMK AO1 SLP040
SPECI CYNL 191514Z AUTO ///// 5SM VV009 M16/M18 A2947 RMK AO1 SLP037
SPECI CYNL 191509Z AUTO ///// 5SM VV010 M16/M18 A2946 RMK AO1 SLP036
METAR CYNL 191500Z AUTO ///// 5SM VV007 M16/M18 A2946 RMK AO1 SLP035
SPECI CYNL 191450Z AUTO ///// 5SM VV006 M16/M18 A2946 RMK AO1 SLP033
SPECI CYNL 191445Z AUTO 08007KT 6SM FEW006 M16/M18 A2945 RMK AO1 SLP033
METAR CYNL 191400Z AUTO 08006KT 9SM CLR M16/M19 A2945 RMK AO1 SLP030
METAR CYNL 191300Z AUTO 08007KT 9SM FEW008 M16/M19 A2943 RMK AO1 SLP024
SPECI CYNL 191209Z AUTO ///// 9SM SCT008 M15/M18 A2941 RMK AO1 SLP018
SPECI CYNL 191205Z AUTO ///// 8SM BKN008 M15/M18 A2941 RMK AO1 SLP018
METAR CYNL 191200Z AUTO ///// 8SM SCT007 M15/M18 A2941 RMK AO1 SLP018
SPECI CYNL 191158Z AUTO ///// 9SM SCT007 M15/M18 A2941 RMK AO1 SLP017
SPECI CYNL 191143Z AUTO ///// 8SM VV007 M15/M18 A2941 RMK AO1 SLP017
SPECI CYNL 191135Z AUTO ///// 9SM SCT007 M15/M18 A2941 RMK AO1 SLP017
METAR CYNL 191100Z AUTO ///// 7SM VV008 M15/M17 A2941 RMK AO1 SLP014
SPECI CYNL 191023Z AUTO ///// 4SM VV009 M14/M17 A2940 RMK AO1 SLP010
SPECI CYNL 191017Z AUTO ///// 3SM VV011 M14/M17 A2940 RMK AO1 SLP010
SPECI CYNL 191012Z AUTO ///// 2 1/2SM VV013 M14/M17 A2939 RMK AO1 SLP009
SPECI CYNL 191011Z AUTO ///// 3SM VV013 M14/M17 A2939 RMK AO1 SLP009
SPECI CYNL 191007Z AUTO ///// 2 1/2SM VV014 M14/M17 A2939 RMK AO1 SLP008
METAR CYNL 191000Z AUTO ///// 2 1/2SM VV016 M14/M16 A2939 RMK AO1 SLP006
SPECI CYNL 190954Z AUTO ///// 2 1/2SM VV015 M14/M16 A2939 RMK AO1 SLP006
SPECI CYNL 190939Z AUTO ///// 2SM VV012 M14/M16 A2938 RMK AO1 SLP005
SPECI CYNL 190930Z AUTO ///// 1 3/4SM VV014 M14/M16 A2938 RMK AO1 SLP004
SPECI CYNL 190929Z AUTO ///// 1 3/4SM VV015 M14/M16 A2938 RMK AO1 SLP003
SPECI CYNL 190918Z AUTO ///// 2 1/2SM VV015 M14/M16 A2938 RMK AO1 SLP003
METAR CYNL 190900Z AUTO ///// 4SM VV020 M14/M16 A2938 RMK AO1 SLP001
SPECI CYNL 190850Z AUTO ///// 4SM VV024 M14/M16 A2937 RMK AO1 SLP001
SPECI CYNL 190835Z AUTO ///// 4SM VV026 M14/M16 A2938 RMK AO1 SLP002
SPECI CYNL 190829Z AUTO ///// 3SM VV015 M14/M16 A2938 RMK AO1 SLP002
SPECI CYNL 190828Z AUTO ///// 3SM VV014 M14/M16 A2938 RMK AO1 SLP002
SPECI CYNL 190823Z AUTO ///// 2 1/2SM VV014 M13/M16 A2938 RMK AO1 SLP002
SPECI CYNL 190821Z AUTO ///// 2 1/2SM VV016 M13/M16 A2938 RMK AO1 SLP002
SPECI CYNL 190807Z AUTO ///// 3SM VV018 M13/M15 A2937 RMK AO1 SLP001
SPECI CYNL 190805Z AUTO ///// 2 1/2SM VV016 M13/M15 A2937 RMK AO1 SLP000
SPECI CYNL 190804Z AUTO ///// 2 1/2SM VV014 M13/M15 A2937 RMK AO1 SLP000
SPECI CYNL 190802Z AUTO ///// 3SM VV013 M13/M15 A2938 RMK AO1 SLP001
METAR CYNL 190800Z AUTO ///// 2 1/2SM VV012 M13/M15 A2938 RMK AO1 SLP001
SPECI CYNL 190758Z AUTO ///// 2 1/2SM VV012 M13/M15 A2938 RMK AO1 SLP001
SPECI CYNL 190753Z AUTO ///// 3SM VV014 M13/M15 A2937 RMK AO1 SLP001
SPECI CYNL 190752Z AUTO ///// 2 1/2SM VV014 M13/M15 A2938 RMK AO1 SLP001
SPECI CYNL 190745Z AUTO ///// 2 1/2SM VV018 M13/M15 A2938 RMK AO1 SLP002
SPECI CYNL 190737Z AUTO ///// 3SM VV023 M13/M15 A2938 RMK AO1 SLP002
METAR CYNL 190700Z AUTO ///// 4SM FEW005 SCT037 BKN043 M13/M15 A2938 RMK AO1 SLP001
SPECI CYNL 190618Z AUTO ///// 9SM FEW006 SCT008 M13/M15 A2938 RMK AO1 SLP002
SPECI CYNL 190611Z AUTO ///// 9SM SCT006 BKN013 M13/M15 A2938 RMK AO1 SLP002
METAR CYNL 190600Z AUTO ///// 6SM VV009 M13/M15 A2938 RMK AO1 SLP001
SPECI CYNL 190559Z AUTO ///// 6SM VV009 M13/M15 A2938 RMK AO1 SLP002
SPECI CYNL 190545Z AUTO ///// 3SM VV014 M13/M15 A2938 RMK AO1 SLP002
SPECI CYNL 190535Z AUTO ///// 2SM VV013 M13/M15 A2938 RMK AO1 SLP002
SPECI CYNL 190518Z AUTO ///// 1 3/4SM VV014 M13/M15 A2938 RMK AO1 SLP001
SPECI CYNL 190514Z AUTO ///// 1 3/4SM VV015 M13/M15 A2937 RMK AO1 SLP001
SPECI CYNL 190513Z AUTO ///// 2SM VV016 M13/M15 A2937 RMK AO1 SLP001
SPECI CYNL 190512Z AUTO ///// 1 3/4SM VV016 M13/M15 A2938 RMK AO1 SLP000
SPECI CYNL 190511Z AUTO ///// 2SM VV016 M13/M15 A2937 RMK AO1 SLP000
METAR CYNL 190500Z AUTO ///// 1 3/4SM VV017 M13/M15 A2937 RMK AO1 SLP000
SPECI CYNL 190454Z AUTO ///// 1 1/2SM VV015 M13/M15 A2937 RMK AO1 SLP000
SPECI CYNL 190432Z AUTO ///// 1 1/2SM VV014 M13/M15 A2937 RMK AO1 SLP999
SPECI CYNL 190413Z AUTO ///// 1 3/4SM VV021 M13/M15 A2937 RMK AO1 SLP998
SPECI CYNL 190407Z AUTO ///// 2 1/2SM VV024 M13/M14 A2937 RMK AO1 SLP998
SPECI CYNL 190404Z AUTO ///// 2 1/2SM VV027 M12/M14 A2937 RMK AO1 SLP998
METAR CYNL 190400Z AUTO ///// 3SM FEW008 OVC027 M12/M14 A2937 RMK AO1 SLP998
SPECI CYNL 190342Z AUTO ///// 5SM SCT007 OVC027 M12/M14 A2937 RMK AO1 SLP999
SPECI CYNL 190321Z AUTO ///// 3SM VV008 M12/M14 A2937 RMK AO1 SLP000
METAR CYNL 190300Z AUTO ///// 2SM VV009 M12/M14 A2937 RMK AO1 SLP000
SPECI CYNL 190259Z AUTO ///// 2SM VV009 M12/M14 A2937 RMK AO1 SLP000
SPECI CYNL 190258Z AUTO ///// 1 3/4SM VV009 M12/M14 A2937 RMK AO1 SLP000
SPECI CYNL 190246Z AUTO ///// 1 3/4SM VV010 M12/M14 A2937 RMK AO1 SLP000
SPECI CYNL 190242Z AUTO 10009KT 1 3/4SM VV009 M12/M14 A2938 RMK AO1 SLP001
SPECI CYNL 190241Z AUTO 10008KT 2SM VV009 M12/M14 A2938 RMK AO1 SLP001
SPECI CYNL 190228Z AUTO 10006KT 1 3/4SM VV009 M12/M14 A2938 RMK AO1 SLP001
SPECI CYNL 190221Z AUTO 10006KT 1 3/4SM VV011 M12/M14 A2938 RMK AO1 SLP001
METAR CYNL 190200Z AUTO 10008KT 2 1/2SM VV011 M12/M14 A2938 RMK AO1 SLP000
SPECI CYNL 190157Z AUTO 10007KT 2 1/2SM VV012 M12/M14 A2937 RMK AO1 SLP000
SPECI CYNL 190155Z AUTO 11009KT 3SM VV014 M12/M14 A2937 RMK AO1 SLP000
SPECI CYNL 190154Z AUTO 10008KT 2 1/2SM VV015 M12/M14 A2937 RMK AO1 SLP000
SPECI CYNL 190153Z AUTO 10007KT 3SM VV015 M12/M14 A2937 RMK AO1 SLP000
SPECI CYNL 190152Z AUTO 10007KT 2 1/2SM VV015 M12/M14 A2937 RMK AO1 SLP000
SPECI CYNL 190151Z AUTO 10008KT 3SM VV015 M12/M14 A2938 RMK AO1 SLP000
SPECI CYNL 190142Z AUTO 10008KT 3SM VV010 M12/M14 A2938 RMK AO1 SLP001
SPECI CYNL 190131Z AUTO 10007KT 3SM VV009 M12/M14 A2938 RMK AO1 SLP001
SPECI CYNL 190125Z AUTO 10008KT 3SM VV013 M12/M14 A2937 RMK AO1 SLP000
SPECI CYNL 190105Z AUTO 11007KT 2SM VV011 M12/M14 A2938 RMK AO1 SLP002
SPECI CYNL 190103Z AUTO 10007KT 1 3/4SM VV011 M12/M14 A2938 RMK AO1 SLP003
METAR CYNL 190100Z AUTO 11007KT 2SM VV012 M12/M14 A2938 RMK AO1 SLP003
SPECI CYNL 190057Z AUTO 10006KT 2SM VV012 M12/M14 A2938 RMK AO1 SLP003
SPECI CYNL 190046Z AUTO 11007KT 1 3/4SM VV012 M12/M13 A2938 RMK AO1 SLP003
SPECI CYNL 190044Z AUTO 11007KT 2SM VV012 M12/M13 A2938 RMK AO1 SLP003
SPECI CYNL 190043Z AUTO 11007KT 1 3/4SM VV012 M12/M13 A2938 RMK AO1 SLP003
SPECI CYNL 190042Z AUTO 10008KT 2SM VV012 M12/M13 A2938 RMK AO1 SLP003
METAR CYNL 190000Z AUTO 10007KT 1 3/4SM VV011 M11/M13 A2939 RMK AO1 SLP006
SPECI CYNL 182356Z AUTO 10008KT 1 1/2SM VV011 M11/M13 A2939 RMK AO1 SLP005
SPECI CYNL 182339Z AUTO 11007KT 1 1/4SM VV011 M11/M13 A2940 RMK AO1 SLP007
SPECI CYNL 182336Z AUTO 10007KT 1 1/2SM VV010 M11/M13 A2940 RMK AO1 SLP007
SPECI CYNL 182319Z AUTO 11008KT 1 1/4SM VV009 M11/M13 A2940 RMK AO1 SLP009
SPECI CYNL 182304Z AUTO 11007KT 1 1/2SM VV011 M11/M13 A2941 RMK AO1 SLP010
METAR CYNL 182300Z AUTO 11009KT 1 1/4SM VV011 M11/M13 A2941 RMK AO1 SLP010
SPECI CYNL 182258Z AUTO 11008KT 1 1/4SM VV011 M11/M13 A2941 RMK AO1 SLP010
SPECI CYNL 182253Z AUTO 11007KT 1 1/2SM VV010 M11/M13 A2941 RMK AO1 SLP011
SPECI CYNL 182249Z AUTO 10007KT 1 1/2SM VV008 M11/M13 A2941 RMK AO1 SLP011
SPECI CYNL 182231Z AUTO 12008KT 1 1/4SM VV009 M11/M13 A2941 RMK AO1 SLP012
SPECI CYNL 182230Z AUTO 12009KT 1 1/2SM VV010 M11/M13 A2941 RMK AO1 SLP012
SPECI CYNL 182228Z AUTO 13007KT 1 1/4SM VV010 M11/M13 A2941 RMK AO1 SLP012
SPECI CYNL 182218Z AUTO 12006KT 1SM VV008 M11/M13 A2941 RMK AO1 SLP011
SPECI CYNL 182210Z AUTO 11008KT 3/4SM VV008 M11/M13 A2941 RMK AO1 SLP010
METAR CYNL 182200Z AUTO 11006KT 1/2SM VV008 M11/M13 A2940 RMK AO1 SLP009
SPECI CYNL 182159Z AUTO 11007KT 1/2SM VV009 M11/M13 A2940 RMK AO1 SLP009
SPECI CYNL 182158Z AUTO 11006KT 5/8SM FEW003 SCT009 BKN012 M11/M13 A2941 RMK AO1 SLP010
SPECI CYNL 182156Z AUTO 12007KT 1 1/4SM FEW003 BKN010 OVC014 M11/M13 A2941 RMK AO1 PRESFR SLP011
SPECI CYNL 182154Z AUTO 12008KT 1 1/2SM FEW003 BKN011 OVC014 M11/M13 A2941 RMK AO1 PRESFR SLP012
SPECI CYNL 182153Z AUTO 12009KT 2SM FEW006 BKN011 OVC014 M11/M13 A2941 RMK AO1 PRESFR SLP012
SPECI CYNL 182152Z AUTO 12010KT 2 1/2SM BKN011 OVC014 M11/M13 A2941 RMK AO1 PRESFR SLP012
SPECI CYNL 182110Z AUTO 12008KT 9SM OVC014 M11/M13 A2941 RMK AO1 PRESFR SLP012
METAR CYNL 182100Z AUTO 12008KT 9SM OVC015 M11/M13 A2942 RMK AO1 PRESFR SLP013
METAR CYNL 182000Z AUTO 14008KT 8SM FEW008 OVC017 M11/M13 A2944 RMK AO1 PRESFR SLP022
SPECI CYNL 181948Z AUTO 14008KT 6SM FEW006 SCT008 OVC017 M11/M13 A2944 RMK AO1 PRESFR SLP023
SPECI CYNL 181946Z AUTO 13007KT 4SM FEW006 SCT008 BKN013 M11/M13 A2945 RMK AO1 PRESFR SLP023
SPECI CYNL 181944Z AUTO 14007KT 3SM VV009 M11/M13 A2945 RMK AO1 PRESFR SLP023
SPECI CYNL 181941Z AUTO 14009KT 3SM VV013 M11/M13 A2945 RMK AO1 PRESFR SLP024
SPECI CYNL 181940Z AUTO 14008KT 2 1/2SM VV014 M11/M13 A2945 RMK AO1 PRESFR SLP024
SPECI CYNL 181932Z AUTO 14007KT 2SM VV015 M11/M13 A2945 RMK AO1 PRESFR SLP023
SPECI CYNL 181928Z AUTO 14008KT 2 1/2SM VV010 M11/M13 A2945 RMK AO1 PRESFR SLP024
SPECI CYNL 181923Z AUTO 13007KT 2 1/2SM VV009 M11/M13 A2945 RMK AO1 PRESFR SLP025
SPECI CYNL 181918Z AUTO 14009KT 2SM VV011 M11/M13 A2946 RMK AO1 PRESFR SLP027
SPECI CYNL 181916Z AUTO 14009KT 1 3/4SM VV010 M11/M13 A2946 RMK AO1 PRESFR SLP027
SPECI CYNL 181912Z AUTO 14009KT 1 1/2SM VV009 M11/M13 A2946 RMK AO1 PRESFR SLP028
SPECI CYNL 181911Z AUTO 14008KT 1 1/4SM VV009 M11/M13 A2946 RMK AO1 PRESFR SLP028
SPECI CYNL 181908Z AUTO 14007KT 1 1/4SM VV011 M11/M13 A2947 RMK AO1 PRESFR SLP030
SPECI CYNL 181905Z AUTO 14007KT 1 1/2SM VV014 M11/M13 A2946 RMK AO1 PRESFR SLP029
SPECI CYNL 181903Z AUTO 15010KT 1 3/4SM VV016 M11/M13 A2946 RMK AO1 PRESFR SLP029
METAR CYNL 181900Z AUTO 13009KT 2SM VV019 M11/M13 A2946 RMK AO1 PRESFR SLP029
SPECI CYNL 181858Z AUTO 13009KT 1 3/4SM VV019 M11/M13 A2946 RMK AO1 PRESFR SLP030
SPECI CYNL 181853Z AUTO 15008KT 2 1/2SM VV015 M11/M13 A2947 RMK AO1 SLP031
SPECI CYNL 181849Z AUTO 14009KT 2 1/2SM VV011 M11/M13 A2947 RMK AO1 SLP032
SPECI CYNL 181848Z AUTO 14008KT 2 1/2SM VV009 M11/M13 A2947 RMK AO1 SLP032
SPECI CYNL 181846Z AUTO 14009KT 2 1/2SM FEW003 SCT007 BKN016 M11/M13 A2947 RMK AO1 SLP033
SPECI CYNL 181845Z AUTO 14010KT 3SM FEW003 BKN016 OVC020 M11/M13 A2947 RMK AO1 SLP033
SPECI CYNL 181844Z AUTO 14009KT 2 1/2SM FEW003 BKN016 OVC020 M11/M13 A2947 RMK AO1 SLP033
SPECI CYNL 181837Z AUTO 14009KT 6SM FEW007 OVC016 M11/M13 A2948 RMK AO1 SLP036
METAR CYNL 181800Z AUTO 14008KT 9SM FEW011 OVC015 M11/M13 A2949 RMK AO1 SLP040
SPECI CYNL 181759Z AUTO ///// 9SM FEW011 OVC015 M11/M13 A2949 RMK AO1 SLP040
SPECI CYNL 181732Z AUTO 14010KT 9SM FEW004 SCT006 BKN010 M11/M13 A2951 RMK AO1 SLP045
SPECI CYNL 181731Z AUTO 14009KT 9SM SCT004 BKN009 OVC013 M11/M13 A2951 RMK AO1 SLP045
SPECI CYNL 181729Z AUTO ///// 9SM SCT004 BKN010 OVC013 M11/M13 A2951 RMK AO1 SLP045
SPECI CYNL 181728Z AUTO 14010KT 9SM SCT003 BKN009 OVC013 M11/M13 A2951 RMK AO1 SLP046
SPECI CYNL 181727Z AUTO 14009KT 6SM SCT004 BKN010 OVC013 M11/M13 A2951 RMK AO1 SLP046
SPECI CYNL 181724Z AUTO 13008KT 9SM SCT004 BKN007 OVC013 M11/M13 A2951 RMK AO1 SLP045
SPECI CYNL 181723Z AUTO 14008KT 7SM BKN004 OVC013 M11/M13 A2951 RMK AO1 SLP045
SPECI CYNL 181722Z AUTO 14008KT 8SM SCT003 BKN006 OVC013 M12/M13 A2951 RMK AO1 SLP046
SPECI CYNL 181721Z AUTO 13010KT 8SM BKN003 OVC013 M12/M13 A2951 RMK AO1 SLP046
SPECI CYNL 181720Z AUTO 14010KT 9SM SCT003 BKN005 OVC013 M12/M13 A2951 RMK AO1 SLP046
SPECI CYNL 181704Z AUTO ///// 3SM OVC003 M12/M13 A2951 RMK AO1 SLP045
METAR CYNL 181700Z AUTO ///// 2SM OVC003 M12/M14 A2951 RMK AO1 SLP046
SPECI CYNL 181657Z AUTO ///// 2SM OVC003 M12/M14 A2951 RMK AO1 SLP046
SPECI CYNL 181617Z AUTO ///// 1 3/4SM OVC003 M12/M14 A2951 RMK AO1 SLP045
SPECI CYNL 181616Z AUTO ///// 2SM OVC003 M12/M14 A2951 RMK AO1 SLP046
SPECI CYNL 181611Z AUTO ///// 1 3/4SM OVC003 M12/M14 A2951 RMK AO1 SLP047
SPECI CYNL 181607Z AUTO ///// 2 1/2SM OVC003 M12/M14 A2951 RMK AO1 SLP047
SPECI CYNL 181604Z AUTO ///// 3SM OVC003 M12/M14 A2951 RMK AO1 SLP047
METAR CYNL 181600Z AUTO ///// 2SM OVC003 M12/M14 A2951 RMK AO1 SLP047
SPECI CYNL 181559Z AUTO ///// 2 1/2SM OVC003 M12/M14 A2951 RMK AO1 SLP047
SPECI CYNL 181558Z AUTO ///// 3SM OVC003 M12/M14 A2951 RMK AO1 SLP047
SPECI CYNL 181557Z AUTO ///// 2 1/2SM OVC003 M12/M14 A2951 RMK AO1 SLP047
SPECI CYNL 181526Z AUTO ///// 3SM OVC003 M12/M14 A2952 RMK AO1 SLP050
SPECI CYNL 181521Z AUTO ///// 2 1/2SM OVC003 M12/M14 A2952 RMK AO1 SLP049
SPECI CYNL 181516Z AUTO ///// 3SM OVC003 M12/M14 A2952 RMK AO1 SLP049
SPECI CYNL 181513Z AUTO ///// 2 1/2SM OVC003 M12/M14 A2952 RMK AO1 SLP050
SPECI CYNL 181505Z AUTO ///// 3SM OVC003 M12/M14 A2952 RMK AO1 SLP050
SPECI CYNL 181502Z AUTO ///// 2 1/2SM OVC003 M12/M14 A2952 RMK AO1 SLP049
METAR CYNL 181500Z AUTO ///// 4SM OVC003 M12/M14 A2952 RMK AO1 SLP050
SPECI CYNL 181459Z AUTO ///// 4SM OVC003 M12/M14 A2952 RMK AO1 SLP050
SPECI CYNL 181458Z AUTO ///// 2 1/2SM OVC003 M12/M14 A2952 RMK AO1 SLP050
SPECI CYNL 181448Z AUTO ///// 3SM OVC003 M12/M14 A2953 RMK AO1 PRESFR SLP053
SPECI CYNL 181441Z AUTO ///// 2 1/2SM OVC003 M12/M14 A2954 RMK AO1 PRESFR SLP056
SPECI CYNL 181434Z AUTO ///// 3SM OVC003 M12/M14 A2953 RMK AO1 PRESFR SLP054
SPECI CYNL 181429Z AUTO ///// 2 1/2SM OVC003 M12/M14 A2953 RMK AO1 PRESFR SLP053
SPECI CYNL 181427Z AUTO ///// 1 3/4SM OVC003 M12/M14 A2953 RMK AO1 PRESFR SLP053
SPECI CYNL 181426Z AUTO ///// 2 1/2SM OVC003 M12/M14 A2953 RMK AO1 PRESFR SLP053
METAR CYNL 181400Z AUTO ///// 3SM OVC003 M12/M14 A2953 RMK AO1 PRESFR SLP054
SPECI CYNL 181358Z AUTO ///// 2 1/2SM OVC003 M12/M14 A2953 RMK AO1 PRESFR SLP054
SPECI CYNL 181354Z AUTO ///// 3SM OVC003 M12/M14 A2954 RMK AO1 SLP056
SPECI CYNL 181348Z AUTO ///// 2 1/2SM OVC003 M12/M14 A2954 RMK AO1 SLP057
SPECI CYNL 181345Z AUTO ///// 3SM OVC003 M12/M14 A2954 RMK AO1 SLP057
SPECI CYNL 181343Z AUTO ///// 2 1/2SM OVC003 M12/M14 A2954 RMK AO1 SLP057
SPECI CYNL 181336Z AUTO ///// 3SM OVC003 M12/M14 A2954 RMK AO1 SLP058
SPECI CYNL 181327Z AUTO ///// 2SM OVC003 M12/M14 A2954 RMK AO1 SLP058
SPECI CYNL 181319Z AUTO ///// 1 3/4SM OVC003 M12/M14 A2954 RMK AO1 SLP059
SPECI CYNL 181317Z AUTO ///// 2SM OVC003 M12/M14 A2955 RMK AO1 SLP060
SPECI CYNL 181311Z AUTO ///// 1 1/2SM OVC003 M12/M14 A2955 RMK AO1 SLP061
SPECI CYNL 181307Z AUTO ///// 1 1/4SM OVC003 M12/M14 A2955 RMK AO1 SLP062
METAR CYNL 181300Z AUTO ///// 1 3/4SM OVC003 M12/M14 A2956 RMK AO1 SLP063
SPECI CYNL 181256Z AUTO ///// 1 3/4SM OVC003 M12/M14 A2956 RMK AO1 PRESFR SLP064
SPECI CYNL 181253Z AUTO ///// 2SM OVC003 M12/M14 A2956 RMK AO1 PRESFR SLP064
SPECI CYNL 181252Z AUTO ///// 1 3/4SM OVC003 M12/M14 A2956 RMK AO1 PRESFR SLP064
SPECI CYNL 181251Z AUTO ///// 2SM OVC003 M12/M14 A2956 RMK AO1 PRESFR SLP064
SPECI CYNL 181240Z AUTO ///// 1 3/4SM OVC003 M12/M14 A2956 RMK AO1 PRESFR SLP066
SPECI CYNL 181239Z AUTO ///// 2SM OVC003 M12/M14 A2956 RMK AO1 PRESFR SLP067
SPECI CYNL 181237Z AUTO ///// 1 3/4SM OVC003 M12/M14 A2957 RMK AO1 PRESFR SLP067
SPECI CYNL 181219Z AUTO ///// 2SM OVC003 M12/M14 A2957 RMK AO1 PRESFR SLP067
SPECI CYNL 181215Z AUTO ///// 1 3/4SM OVC003 M12/M14 A2957 RMK AO1 PRESFR SLP068
SPECI CYNL 181213Z AUTO ///// 2 1/2SM OVC003 M12/M14 A2957 RMK AO1 PRESFR SLP068
METAR CYNL 181200Z AUTO ///// 4SM OVC003 M12/M14 A2957 RMK AO1 PRESFR SLP068
SPECI CYNL 181126Z AUTO ///// 9SM OVC004 M12/M14 A2959 RMK AO1 SLP076
METAR CYNL 181100Z AUTO ///// 9SM OVC005 M12/M14 A2960 RMK AO1 SLP079
SPECI CYNL 181028Z AUTO ///// 9SM OVC005 M12/M14 A2961 RMK AO1 SLP083
METAR CYNL 181000Z AUTO ///// 8SM OVC004 M12/M14 A2962 RMK AO1 SLP086
SPECI CYNL 180948Z AUTO ///// 7SM OVC004 M12/M14 A2962 RMK AO1 PRESFR SLP084
SPECI CYNL 180906Z AUTO ///// 9SM OVC005 M12/M14 A2962 RMK AO1 PRESFR SLP084
METAR CYNL 180900Z AUTO ///// 9SM OVC004 M12/M14 A2961 RMK AO1 PRESFR SLP083
METAR CYNL 180800Z AUTO ///// 4SM OVC003 M12/M14 A2964 RMK AO1 SLP091
SPECI CYNL 180741Z AUTO ///// 4SM OVC003 M12/M14 A2964 RMK AO1 SLP093
SPECI CYNL 180739Z AUTO ///// 3SM OVC002 M12/M14 A2964 RMK AO1 SLP092
SPECI CYNL 180735Z AUTO ///// 2 1/2SM OVC002 M12/M14 A2964 RMK AO1 SLP092
SPECI CYNL 180734Z AUTO ///// 3SM OVC002 M12/M14 A2964 RMK AO1 SLP092
SPECI CYNL 180733Z AUTO ///// 2 1/2SM OVC002 M12/M14 A2964 RMK AO1 SLP092
SPECI CYNL 180732Z AUTO ///// 3SM OVC002 M12/M14 A2964 RMK AO1 SLP092
SPECI CYNL 180729Z AUTO ///// 2 1/2SM OVC002 M12/M14 A2964 RMK AO1 SLP093
SPECI CYNL 180726Z AUTO ///// 4SM OVC002 M12/M14 A2964 RMK AO1 SLP093
SPECI CYNL 180724Z AUTO ///// 2SM OVC002 M12/M14 A2964 RMK AO1 SLP093
SPECI CYNL 180717Z AUTO ///// 1 1/2SM OVC002 M12/M14 A2965 RMK AO1 SLP094
SPECI CYNL 180712Z AUTO ///// 1SM OVC002 M12/M14 A2965 RMK AO1 SLP095
SPECI CYNL 180710Z AUTO ///// 3/4SM OVC002 M12/M14 A2965 RMK AO1 SLP096
SPECI CYNL 180709Z AUTO ///// 1SM OVC002 M12/M14 A2965 RMK AO1 SLP097
SPECI CYNL 180708Z AUTO ///// 3/4SM OVC002 M12/M14 A2965 RMK AO1 SLP097
METAR CYNL 180700Z AUTO ///// 1/2SM OVC002 M12/M14 A2965 RMK AO1 SLP097
SPECI CYNL 180649Z AUTO ///// 5/8SM OVC002 M12/M14 A2966 RMK AO1 SLP098
SPECI CYNL 180644Z AUTO ///// 3/4SM OVC002 M12/M14 A2966 RMK AO1 SLP099
METAR CYNL 180600Z AUTO ///// 3/8SM BKN002 OVC003 M12/M14 A2967 RMK AO1 SLP101
METAR CYNL 180500Z AUTO ///// 3/8SM OVC002 M12/M14 A2967 RMK AO1 PRESFR SLP102
SPECI CYNL 180450Z AUTO ///// 5/8SM OVC002 M12/M14 A2967 RMK AO1 PRESFR SLP104
SPECI CYNL 180449Z AUTO ///// 3/4SM OVC002 M12/M14 A2967 RMK AO1 PRESFR SLP105
SPECI CYNL 180435Z AUTO ///// 5/8SM OVC002 M12/M14 A2968 RMK AO1 PRESFR SLP109
SPECI CYNL 180432Z AUTO ///// 3/4SM OVC002 M12/M14 A2968 RMK AO1 PRESFR SLP109
SPECI CYNL 180420Z AUTO ///// 5/8SM OVC002 M12/M14 A2969 RMK AO1 PRESFR SLP111
SPECI CYNL 180419Z AUTO ///// 3/4SM OVC002 M12/M14 A2969 RMK AO1 PRESFR SLP110
SPECI CYNL 180402Z AUTO ///// 5/8SM OVC002 M12/M14 A2969 RMK AO1 PRESFR SLP112
SPECI CYNL 180401Z AUTO ///// 3/4SM OVC002 M12/M14 A2969 RMK AO1 PRESFR SLP112
METAR CYNL 180400Z AUTO ///// 1/2SM OVC002 M12/M14 A2969 RMK AO1 PRESFR SLP112
SPECI CYNL 180358Z AUTO ///// 5/8SM OVC002 M12/M14 A2969 RMK AO1 PRESFR SLP113
SPECI CYNL 180356Z AUTO ///// 1SM OVC002 M12/M14 A2969 RMK AO1 SLP114
SPECI CYNL 180352Z AUTO ///// 5/8SM OVC002 M12/M14 A2969 RMK AO1 SLP114
SPECI CYNL 180351Z AUTO ///// 3/4SM OVC002 M12/M14 A2969 RMK AO1 SLP114
SPECI CYNL 180349Z AUTO ///// 1SM OVC002 M12/M14 A2970 RMK AO1 SLP114
SPECI CYNL 180347Z AUTO ///// 3/4SM OVC002 M12/M14 A2970 RMK AO1 SLP115
SPECI CYNL 180343Z AUTO ///// 1SM OVC002 M12/M14 A2970 RMK AO1 SLP116
SPECI CYNL 180342Z AUTO ///// 3/4SM OVC002 M12/M14 A2970 RMK AO1 SLP116
SPECI CYNL 180340Z AUTO ///// 1SM OVC002 M12/M14 A2970 RMK AO1 SLP116
SPECI CYNL 180339Z AUTO ///// 3/4SM OVC002 M12/M14 A2970 RMK AO1 SLP116
SPECI CYNL 180335Z AUTO ///// 5/8SM OVC002 M12/M14 A2970 RMK AO1 SLP117
SPECI CYNL 180334Z AUTO ///// 3/4SM OVC002 M12/M14 A2970 RMK AO1 SLP117
SPECI CYNL 180331Z AUTO ///// 1 1/2SM OVC002 M12/M14 A2970 RMK AO1 SLP117
SPECI CYNL 180330Z AUTO ///// 1SM OVC002 M12/M14 A2970 RMK AO1 SLP117
SPECI CYNL 180328Z AUTO ///// 3/4SM OVC002 M12/M14 A2971 RMK AO1 SLP118
SPECI CYNL 180323Z AUTO ///// 1SM OVC002 M12/M14 A2971 RMK AO1 SLP118
SPECI CYNL 180320Z AUTO ///// 3/4SM OVC002 M12/M14 A2971 RMK AO1 SLP119
SPECI CYNL 180316Z AUTO 16005KT 1 1/4SM OVC002 M12/M14 A2971 RMK AO1 SLP120
SPECI CYNL 180313Z AUTO 17004KT 1 3/4SM OVC002 M12/M14 A2972 RMK AO1 SLP121
SPECI CYNL 180305Z AUTO ///// 1 1/4SM OVC002 M12/M14 A2972 RMK AO1 SLP122
SPECI CYNL 180304Z AUTO ///// 1 1/2SM OVC002 M12/M14 A2972 RMK AO1 SLP122
SPECI CYNL 180302Z AUTO ///// 1 1/4SM OVC002 M12/M14 A2972 RMK AO1 SLP121
SPECI CYNL 180301Z AUTO ///// 1 1/2SM OVC002 M12/M14 A2972 RMK AO1 SLP121
METAR CYNL 180300Z AUTO ///// 2SM OVC002 M12/M14 A2972 RMK AO1 SLP122
SPECI CYNL 180259Z AUTO ///// 2SM OVC002 M12/M14 A2972 RMK AO1 SLP122
SPECI CYNL 180258Z AUTO ///// 1 3/4SM OVC002 M12/M14 A2972 RMK AO1 SLP123
SPECI CYNL 180249Z AUTO ///// 1 1/4SM OVC002 M12/M14 A2972 RMK AO1 SLP124
SPECI CYNL 180245Z AUTO ///// 1 3/4SM OVC002 M12/M14 A2972 RMK AO1 SLP124
SPECI CYNL 180244Z AUTO ///// 2SM OVC002 M12/M14 A2972 RMK AO1 SLP124
SPECI CYNL 180243Z AUTO ///// 3SM OVC002 M12/M14 A2972 RMK AO1 SLP124
SPECI CYNL 180242Z AUTO ///// 2SM OVC002 M12/M14 A2972 RMK AO1 SLP124
SPECI CYNL 180239Z AUTO ///// 1 1/4SM OVC002 M12/M14 A2972 RMK AO1 SLP125
SPECI CYNL 180238Z AUTO ///// 1 3/4SM OVC002 M12/M14 A2972 RMK AO1 SLP125
SPECI CYNL 180233Z AUTO ///// 2SM OVC002 M12/M14 A2972 RMK AO1 SLP125
SPECI CYNL 180231Z AUTO ///// 1 3/4SM OVC002 M12/M14 A2972 RMK AO1 SLP124
SPECI CYNL 180228Z AUTO ///// 2SM OVC002 M12/M14 A2972 RMK AO1 SLP123
SPECI CYNL 180227Z AUTO ///// 1 3/4SM OVC002 M12/M14 A2972 RMK AO1 SLP123
SPECI CYNL 180225Z AUTO ///// 2SM OVC002 M12/M14 A2972 RMK AO1 SLP123
SPECI CYNL 180221Z AUTO ///// 1 1/2SM OVC002 M12/M14 A2972 RMK AO1 SLP122
SPECI CYNL 180219Z AUTO ///// 1 1/4SM OVC002 M12/M14 A2972 RMK AO1 SLP123
SPECI CYNL 180218Z AUTO ///// 1 1/2SM OVC002 M12/M14 A2972 RMK AO1 SLP123
SPECI CYNL 180201Z AUTO ///// 1SM OVC002 M12/M14 A2972 RMK AO1 SLP125
METAR CYNL 180200Z AUTO ///// 1 1/2SM OVC002 M12/M14 A2972 RMK AO1 SLP124
SPECI CYNL 180157Z AUTO ///// 1 3/4SM OVC002 M12/M14 A2972 RMK AO1 SLP126
SPECI CYNL 180155Z AUTO ///// 3SM OVC002 M12/M14 A2972 RMK AO1 SLP127
SPECI CYNL 180154Z AUTO ///// 2SM OVC002 M12/M14 A2973 RMK AO1 SLP127
SPECI CYNL 180153Z AUTO ///// 2SM OVC003 M12/M14 A2973 RMK AO1 SLP128
SPECI CYNL 180151Z AUTO ///// 1 1/2SM OVC003 M12/M14 A2973 RMK AO1 SLP128
SPECI CYNL 180149Z AUTO ///// 1SM OVC003 M12/M14 A2973 RMK AO1 SLP129
SPECI CYNL 180147Z AUTO ///// 1 3/4SM OVC003 M12/M14 A2973 RMK AO1 SLP129
SPECI CYNL 180144Z AUTO ///// 1 1/4SM OVC003 M12/M14 A2973 RMK AO1 SLP128
SPECI CYNL 180143Z AUTO ///// 2SM OVC003 M12/M14 A2973 RMK AO1 SLP128
METAR CYNL 180100Z AUTO ///// 8SM OVC003 M12/M14 A2973 RMK AO1 SLP128
METAR CYNL 180000Z AUTO ///// 9SM OVC004 M12/M14 A2973 RMK AO1 SLP128
SPECI CYNL 172323Z AUTO ///// 4SM OVC004 M12/M14 A2974 RMK AO1 SLP131
SPECI CYNL 172321Z AUTO ///// 1 1/4SM OVC004 M12/M14 A2974 RMK AO1 SLP131
SPECI CYNL 172320Z AUTO ///// 1 3/4SM OVC004 M12/M14 A2974 RMK AO1 SLP131
METAR CYNL 172300Z AUTO ///// 7SM OVC004 M12/M14 A2973 RMK AO1 SLP129
SPECI CYNL 172251Z AUTO ///// 9SM OVC004 M12/M14 A2973 RMK AO1 SLP128
SPECI CYNL 172238Z AUTO 12005KT 7SM OVC005 M12/M14 A2972 RMK AO1 SLP127
METAR CYNL 172200Z AUTO 11007KT 7SM OVC004 M12/M14 A2973 RMK AO1 SLP128
SPECI CYNL 172122Z AUTO ///// 9SM OVC004 M12/M14 A2973 RMK AO1 SLP129
SPECI CYNL 172112Z AUTO 12005KT 5SM OVC005 M12/M14 A2972 RMK AO1 SLP127
SPECI CYNL 172109Z AUTO 12006KT 2SM OVC005 M12/M14 A2972 RMK AO1 SLP127
METAR CYNL 172100Z AUTO 11007KT 9SM OVC005 M12/M14 A2972 RMK AO1 SLP128
METAR CYNL 172000Z AUTO ///// 9SM OVC005 M13/M15 A2973 RMK AO1 SLP131
SPECI CYNL 171957Z AUTO ///// 9SM OVC005 M13/M15 A2973 RMK AO1 SLP128
METAR CYNL 171900Z AUTO ///// 5SM OVC003 M13/M15 A2975 RMK AO1 SLP132
SPECI CYNL 171856Z AUTO ///// 3SM OVC003 M13/M15 A2975 RMK AO1 SLP134
SPECI CYNL 171852Z AUTO ///// 2 1/2SM OVC003 M13/M15 A2975 RMK AO1 SLP134
SPECI CYNL 171849Z AUTO ///// 3SM OVC003 M13/M15 A2975 RMK AO1 SLP134
SPECI CYNL 171846Z AUTO ///// 1 1/2SM OVC002 M13/M15 A2974 RMK AO1 SLP134
SPECI CYNL 171841Z AUTO ///// 3SM OVC002 M13/M15 A2975 RMK AO1 SLP135
SPECI CYNL 171839Z AUTO ///// 2 1/2SM OVC002 M13/M15 A2975 RMK AO1 SLP135
SPECI CYNL 171834Z AUTO ///// 3SM OVC002 M13/M15 A2975 RMK AO1 SLP137
SPECI CYNL 171832Z AUTO ///// 2SM OVC002 M13/M15 A2975 RMK AO1 SLP137
SPECI CYNL 171830Z AUTO ///// 1 1/2SM OVC002 M13/M15 A2975 RMK AO1 SLP137
SPECI CYNL 171829Z AUTO ///// 2SM OVC002 M13/M15 A2975 RMK AO1 SLP137
SPECI CYNL 171828Z AUTO ///// 3SM OVC002 M13/M15 A2975 RMK AO1 SLP137
SPECI CYNL 171827Z AUTO ///// 2SM OVC002 M13/M15 A2975 RMK AO1 SLP137
SPECI CYNL 171826Z AUTO ///// 1 1/2SM OVC002 M13/M15 A2975 RMK AO1 SLP137
SPECI CYNL 171825Z AUTO ///// 1 1/4SM OVC002 M13/M15 A2975 RMK AO1 SLP137
SPECI CYNL 171824Z AUTO ///// 1 1/2SM OVC002 M13/M15 A2975 RMK AO1 SLP137
SPECI CYNL 171821Z AUTO ///// 2SM OVC002 M13/M15 A2976 RMK AO1 SLP138
SPECI CYNL 171820Z AUTO ///// 3SM OVC002 M13/M15 A2976 RMK AO1 SLP138
SPECI CYNL 171818Z AUTO ///// 2SM OVC002 M13/M15 A2976 RMK AO1 SLP138
SPECI CYNL 171815Z AUTO ///// 1 3/4SM OVC002 M13/M16 A2976 RMK AO1 SLP138
SPECI CYNL 171813Z AUTO ///// 2SM OVC002 M13/M16 A2976 RMK AO1 SLP138
SPECI CYNL 171811Z AUTO ///// 1 1/2SM OVC002 M13/M16 A2976 RMK AO1 SLP138
SPECI CYNL 171803Z AUTO ///// 1SM BKN002 OVC003 M14/M16 A2976 RMK AO1 SLP138
SPECI CYNL 171802Z AUTO ///// 3/4SM BKN002 OVC003 M14/M16 A2976 RMK AO1 SLP139
METAR CYNL 171800Z AUTO ///// 1SM BKN002 OVC003 M14/M16 A2976 RMK AO1 SLP139
SPECI CYNL 171758Z AUTO ///// 1SM BKN002 OVC003 M14/M16 A2976 RMK AO1 SLP138
SPECI CYNL 171757Z AUTO ///// 3/4SM BKN002 OVC003 M14/M16 A2976 RMK AO1 SLP138
SPECI CYNL 171753Z AUTO ///// 5/8SM BKN002 OVC003 M14/M16 A2976 RMK AO1 SLP139
SPECI CYNL 171750Z AUTO ///// 3/4SM OVC002 M14/M16 A2976 RMK AO1 SLP139
SPECI CYNL 171715Z AUTO ///// 1/4SM VV003 M14/M17 A2976 RMK AO1 SLP139
METAR CYNL 171700Z AUTO ///// 5/8SM OVC002 M14/M17 A2976 RMK AO1 SLP140
SPECI CYNL 171657Z AUTO ///// 1SM OVC002 M15/M17 A2976 RMK AO1 PRESRR SLP140
SPECI CYNL 171656Z AUTO ///// 1 1/2SM OVC002 M15/M17 A2976 RMK AO1 PRESRR SLP140
SPECI CYNL 171650Z AUTO ///// 3SM OVC002 M15/M17 A2976 RMK AO1 PRESRR SLP140
SPECI CYNL 171646Z AUTO ///// 2SM OVC002 M15/M17 A2976 RMK AO1 PRESRR SLP140
SPECI CYNL 171645Z AUTO ///// 2SM OVC003 M15/M17 A2976 RMK AO1 PRESRR SLP140
SPECI CYNL 171642Z AUTO ///// 1 3/4SM OVC003 M15/M17 A2976 RMK AO1 PRESRR SLP139
SPECI CYNL 171639Z AUTO ///// 4SM OVC003 M15/M17 A2976 RMK AO1 PRESRR SLP138
SPECI CYNL 171635Z AUTO ///// 2SM OVC003 M15/M17 A2976 RMK AO1 PRESRR SLP138
METAR CYNL 171600Z AUTO 15004KT 9SM OVC003 M15/M17 A2975 RMK AO1 PRESRR SLP136
METAR CYNL 171500Z AUTO ///// 7SM OVC003 M15/M18 A2972 RMK AO1 SLP126
SPECI CYNL 171444Z AUTO 10007KT 4SM OVC003 M16/M18 A2971 RMK AO1 SLP122
SPECI CYNL 171425Z AUTO 09005KT 4SM OVC002 M16/M18 A2971 RMK AO1 SLP121
SPECI CYNL 171423Z AUTO 10006KT 2SM OVC002 M16/M18 A2971 RMK AO1 SLP121
SPECI CYNL 171422Z AUTO 09007KT 1 3/4SM OVC002 M16/M18 A2971 RMK AO1 SLP121
SPECI CYNL 171419Z AUTO 10005KT 3SM OVC002 M16/M18 A2971 RMK AO1 SLP122
SPECI CYNL 171417Z AUTO 09007KT 1 3/4SM OVC002 M16/M18 A2971 RMK AO1 SLP122
SPECI CYNL 171416Z AUTO 09007KT 1SM OVC002 M16/M18 A2971 RMK AO1 SLP122
SPECI CYNL 171415Z AUTO 09007KT 1 1/2SM OVC002 M16/M18 A2971 RMK AO1 SLP122
SPECI CYNL 171414Z AUTO 09007KT 1 1/4SM OVC002 M16/M18 A2971 RMK AO1 SLP122
SPECI CYNL 171411Z AUTO 09006KT 1 1/2SM OVC002 M16/M19 A2971 RMK AO1 SLP122
SPECI CYNL 171410Z AUTO 09006KT 2SM OVC002 M16/M19 A2971 RMK AO1 SLP122
SPECI CYNL 171407Z AUTO 09006KT 1 1/2SM OVC002 M16/M19 A2971 RMK AO1 SLP122
SPECI CYNL 171405Z AUTO 09007KT 2 1/2SM OVC002 M17/M19 A2971 RMK AO1 SLP123
METAR CYNL 171400Z AUTO 09005KT 3SM OVC002 M17/M19 A2971 RMK AO1 SLP122
SPECI CYNL 171357Z AUTO 09006KT 2SM OVC002 M17/M19 A2971 RMK AO1 SLP122
SPECI CYNL 171355Z AUTO 09005KT 1 1/2SM OVC002 M17/M19 A2971 RMK AO1 SLP122
SPECI CYNL 171354Z AUTO 08006KT 1 1/4SM OVC002 M17/M19 A2971 RMK AO1 SLP122
SPECI CYNL 171353Z AUTO 09006KT 2SM OVC002 M17/M19 A2971 RMK AO1 SLP123
SPECI CYNL 171350Z AUTO 09006KT 1 3/4SM OVC003 M17/M19 A2971 RMK AO1 SLP123
SPECI CYNL 171347Z AUTO 09005KT 2SM OVC003 M17/M19 A2972 RMK AO1 SLP124
SPECI CYNL 171344Z AUTO 09005KT 1 3/4SM OVC003 M17/M19 A2972 RMK AO1 SLP124
SPECI CYNL 171343Z AUTO 09005KT 3SM OVC003 M17/M19 A2972 RMK AO1 SLP124
SPECI CYNL 171339Z AUTO 08005KT 2 1/2SM OVC003 M17/M19 A2971 RMK AO1 SLP124
METAR CYNL 171300Z AUTO ///// 9SM BKN003 M17/M19 A2972 RMK AO1 SLP124
SPECI CYNL 171238Z AUTO 07006KT 9SM BKN003 M17/M19 A2972 RMK AO1 SLP124
SPECI CYNL 171229Z AUTO 06005KT 9SM BKN002 M17/M19 A2972 RMK AO1 SLP124
SPECI CYNL 171227Z AUTO 06005KT 9SM BKN003 M17/M19 A2972 RMK AO1 SLP124
SPECI CYNL 171225Z AUTO 06005KT 9SM BKN002 M17/M19 A2972 RMK AO1 SLP124
SPECI CYNL 171223Z AUTO 07005KT 9SM VV003 M17/M19 A2972 RMK AO1 SLP125
SPECI CYNL 171212Z AUTO 07005KT 3SM OVC002 M17/M19 A2972 RMK AO1 SLP126
SPECI CYNL 171208Z AUTO 07005KT 2 1/2SM BKN002 M17/M19 A2972 RMK AO1 SLP125
SPECI CYNL 171201Z AUTO 07005KT 7SM BKN002 M17/M19 A2972 RMK AO1 SLP125
METAR CYNL 171200Z AUTO 07005KT 8SM BKN003 M17/M19 A2972 RMK AO1 SLP125
SPECI CYNL 171157Z AUTO 07006KT 9SM BKN003 M17/M19 A2972 RMK AO1 SLP124
SPECI CYNL 171145Z AUTO 06005KT 9SM FEW004 M17/M19 A2972 RMK AO1 SLP124
METAR CYNL 171100Z AUTO 04007KT 9SM CLR M17/M19 A2972 RMK AO1 SLP123
METAR CYNL 171000Z AUTO 05003KT 9SM CLR M18/M21 A2973 RMK AO1 SLP126
METAR CYNL 170900Z AUTO 00000KT 9SM CLR M17/M20 A2972 RMK AO1 SLP122
METAR CYNL 170800Z AUTO 33003KT 9SM CLR M15/M17 A2972 RMK AO1 SLP118
METAR CYNL 170700Z AUTO 00000KT 9SM CLR M16/M19 A2973 RMK AO1 SLP122
METAR CYNL 170600Z AUTO 25002KT 9SM CLR M15/M17 A2972 RMK AO1 SLP120
METAR CYNL 170500Z AUTO 26003KT 9SM CLR M14/M17 A2972 RMK AO1 SLP119
METAR CYNL 170400Z AUTO 26002KT 9SM CLR M14/M16 A2971 RMK AO1 SLP118
METAR CYNL 170300Z AUTO 00000KT 9SM CLR M12/M15 A2971 RMK AO1 SLP116
METAR CYNL 170200Z AUTO 00000KT 9SM CLR M12/M15 A2972 RMK AO1 SLP118
METAR CYNL 170100Z AUTO 28005KT 9SM CLR M12/M15 A2974 RMK AO1 PRESFR SLP123
METAR CYNL 170000Z AUTO 28004KT 9SM CLR M11/M14 A2976 RMK AO1 SLP131
METAR CYNL 162300Z AUTO 28004KT 9SM CLR M10/M13 A2976 RMK AO1 SLP130
METAR CYNL 162200Z AUTO 27007KT 9SM CLR M09/M12 A2976 RMK AO1 SLP128
METAR CYNL 162100Z AUTO 26005KT 9SM CLR M08/M12 A2977 RMK AO1 SLP130
METAR CYNL 162000Z AUTO 27007KT 9SM CLR M08/M12 A2978 RMK AO1 SLP134
METAR CYNL 161900Z AUTO 27006KT 9SM CLR M09/M13 A2980 RMK AO1 SLP141
METAR CYNL 161800Z AUTO 25006KT 9SM CLR M10/M14 A2981 RMK AO1 PRESFR SLP145
METAR CYNL 161700Z AUTO 25008G15KT 9SM CLR M11/M15 A2983 RMK AO1 SLP155
METAR CYNL 161600Z AUTO 26006KT 9SM CLR M12/M15 A2985 RMK AO1 SLP162
METAR CYNL 161500Z AUTO 25006KT 9SM CLR M12/M15 A2986 RMK AO1 PRESFR SLP167
METAR CYNL 161400Z AUTO 26006KT 9SM CLR M11/M14 A2989 RMK AO1 SLP176
METAR CYNL 161300Z AUTO 24008KT 9SM CLR M11/M14 A2990 RMK AO1 SLP182
METAR CYNL 161200Z AUTO 25007KT 9SM CLR M11/M14 A2992 RMK AO1 PRESFR SLP187
METAR CYNL 161100Z AUTO 25008KT 9SM CLR M10/M14 A2994 RMK AO1 SLP197
METAR CYNL 161000Z AUTO 24009KT 9SM CLR M11/M14 A2996 RMK AO1 PRESFR SLP203
METAR CYNL 160900Z AUTO 25010G16KT 9SM CLR M11/M15 A2998 RMK AO1 PRESFR SLP213
METAR CYNL 160800Z AUTO 25010KT 9SM CLR M11/M15 A3002 RMK AO1 PRESFR SLP228
METAR CYNL 160700Z AUTO 25010G22KT 9SM CLR M11/M15 A3006 RMK AO1 PRESFR SLP240
METAR CYNL 160600Z AUTO 25011G16KT 9SM CLR M11/M15 A3008 RMK AO1 PRESFR SLP251
METAR CYNL 160500Z AUTO 25008KT 9SM CLR M11/M15 A3011 RMK AO1 SLP265
METAR CYNL 160400Z AUTO 23006KT 9SM FEW180 M12/M15 A3011 RMK AO1 PRESFR SLP269
METAR CYNL 160300Z AUTO 22009KT 9SM BKN180 M13/M16 A3013 RMK AO1 PRESFR SLP282
METAR CYNL 160200Z AUTO ///// 9SM FEW150 M13/M16 A3017 RMK AO1 PRESFR SLP300
METAR CYNL 160100Z AUTO ///// 9SM OVC150 M13/M17 A3022 RMK AO1 PRESFR SLP319
METAR CYNL 160000Z AUTO ///// 9SM OVC150 M14/M17 A3028 RMK AO1 PRESFR SLP342
METAR CYNL 152300Z AUTO ///// 9SM CLR M15/M18 A3034 RMK AO1 PRESFR SLP361
METAR CYNL 152200Z AUTO ///// 9SM OVC120 M15/M18 A3036 RMK AO1 PRESFR SLP370
METAR CYNL 152100Z AUTO ///// 9SM SCT110 M16/M19 A3040 RMK AO1 PRESFR SLP384
METAR CYNL 152000Z AUTO ///// 9SM CLR M17/M20 A3044 RMK AO1 PRESFR SLP400
METAR CYNL 151900Z AUTO 22008KT 9SM CLR M18/M22 A3049 RMK AO1 PRESFR SLP421
METAR CYNL 151800Z AUTO 22004KT 9SM BKN120 M22/M25 A3055 RMK AO1 PRESFR SLP444
METAR CYNL 151700Z AUTO ///// 9SM SCT130 M25/M28 A3058 RMK AO1 SLP457
METAR CYNL 151600Z AUTO ///// 9SM CLR M28/M32 A3058 RMK AO1 SLP464
METAR CYNL 151500Z AUTO 23004KT 9SM CLR M30/M34 A3060 RMK AO1 PRESFR SLP473
METAR CYNL 151400Z AUTO 23004KT 9SM FEW160 M32/M36 A3064 RMK AO1 SLP488
METAR CYNL 151300Z AUTO 22002KT 9SM CLR M31/M36 A3066 RMK AO1 SLP495
METAR CYNL 151200Z AUTO 25004KT 9SM FEW180 M32/M37 A3067 RMK AO1 PRESFR SLP499
METAR CYNL 151100Z AUTO 23003KT 9SM CLR M32/M37 A3069 RMK AO1 SLPNO
METAR CYNL 151000Z AUTO 23003KT 9SM CLR M32/M36 A3071 RMK AO1 PRESFR SLPNO
METAR CYNL 150900Z AUTO 24005KT 9SM CLR M32/M36 A3074 RMK AO1 SLPNO
METAR CYNL 150800Z AUTO 25003KT 9SM CLR M32/M36 A3073 RMK AO1 SLPNO
METAR CYNL 150700Z AUTO 23003KT 9SM CLR M32/M37 A3072 RMK AO1 SLPNO
METAR CYNL 150600Z AUTO 25003KT 9SM CLR M31/M36 A3072 RMK AO1 SLPNO
METAR CYNL 150500Z AUTO ///// 9SM CLR M31/M36 A3072 RMK AO1 SLPNO
METAR CYNL 150400Z AUTO ///// 9SM CLR M31/M35 A3070 RMK AO1 SLPNO
METAR CYNL 150300Z AUTO ///// 9SM CLR M31/M36 A3070 RMK AO1 PRESRR SLPNO
METAR CYNL 150200Z AUTO 26002KT 9SM CLR M31/M36 A3067 RMK AO1 SLP499
METAR CYNL 150100Z AUTO ///// 9SM CLR M31/M35 A3068 RMK AO1 SLP500
METAR CYNL 150000Z AUTO ///// 9SM CLR M30/M34 A3068 RMK AO1 PRESRR SLP496
METAR CYNL 142300Z AUTO 29004KT 9SM CLR M30/M34 A3064 RMK AO1 PRESRR SLP482
METAR CYNL 142200Z AUTO 28006KT 9SM CLR M28/M33 A3061 RMK AO1 PRESRR SLP470
METAR CYNL 142100Z AUTO 30006KT 9SM CLR M27/M32 A3058 RMK AO1 PRESRR SLP460
SPECI CYNL 142009Z AUTO 29009KT 9SM FEW004 M28/M32 A3055 RMK AO1 SLP450
METAR CYNL 142000Z AUTO 30006KT 9SM CLR M28/M32 A3054 RMK AO1 SLP449
SPECI CYNL 141909Z AUTO 31006KT 8SM SCT004 BKN044 M29/M33 A3053 RMK AO1 PRESRR SLP445
SPECI CYNL 141906Z AUTO ///// 7SM VV004 M29/M33 A3053 RMK AO1 PRESRR SLP446
SPECI CYNL 141902Z AUTO ///// 7SM VV005 M29/M33 A3053 RMK AO1 PRESRR SLP446
METAR CYNL 141900Z AUTO ///// 7SM SCT005 OVC044 M29/M33 A3053 RMK AO1 PRESRR SLP446
SPECI CYNL 141841Z AUTO 30004KT 5SM SCT004 OVC052 M29/M33 A3051 RMK AO1 PRESRR SLP442
SPECI CYNL 141833Z AUTO 29006KT 5SM VV004 M29/M33 A3052 RMK AO1 PRESRR SLP442
SPECI CYNL 141829Z AUTO ///// 5SM FEW005 OVC054 M29/M33 A3051 RMK AO1 PRESRR SLP441
METAR CYNL 141800Z AUTO 31008KT 6SM OVC058 M29/M33 A3049 RMK AO1 PRESRR SLP433
METAR CYNL 141700Z AUTO ///// 9SM FEW068 M29/M34 A3046 RMK AO1 PRESRR SLP423
METAR CYNL 141600Z AUTO ///// 9SM FEW003 M30/M34 A3043 RMK AO1 PRESRR SLP413
SPECI CYNL 141516Z AUTO ///// 9SM SCT004 M30/M34 A3040 RMK AO1 PRESRR SLP400
SPECI CYNL 141514Z AUTO ///// 9SM SCT004 BKN028 M30/M34 A3040 RMK AO1 PRESRR SLP399
METAR CYNL 141500Z AUTO ///// 6SM VV004 M30/M34 A3039 RMK AO1 PRESRR SLP397
SPECI CYNL 141458Z AUTO ///// 6SM VV004 M30/M34 A3039 RMK AO1 PRESRR SLP396
SPECI CYNL 141418Z AUTO ///// 7SM VV006 M30/M34 A3037 RMK AO1 PRESRR SLP389
METAR CYNL 141400Z AUTO ///// 7SM VV003 M30/M34 A3036 RMK AO1 PRESRR SLP385
METAR CYNL 141300Z AUTO ///// 9SM BKN004 OVC034 M29/M33 A3032 RMK AO1 PRESRR SLP370
SPECI CYNL 141232Z AUTO ///// 9SM VV004 M29/M33 A3032 RMK AO1 PRESRR SLP370
METAR CYNL 141200Z AUTO ///// 9SM SCT005 OVC037 M29/M33 A3029 RMK AO1 PRESRR SLP361
SPECI CYNL 141155Z AUTO ///// 9SM SCT005 OVC035 M29/M33 A3029 RMK AO1 PRESRR SLP358
SPECI CYNL 141147Z AUTO ///// 9SM VV005 M29/M33 A3028 RMK AO1 PRESRR SLP355
SPECI CYNL 141143Z AUTO ///// 9SM FEW006 OVC034 M29/M33 A3028 RMK AO1 PRESRR SLP355
METAR CYNL 141100Z AUTO ///// 9SM OVC036 M29/M34 A3026 RMK AO1 PRESRR SLP348
METAR CYNL 141000Z AUTO ///// 9SM FEW003 BKN042 M31/M35 A3022 RMK AO1 PRESRR SLP334
SPECI CYNL 140931Z AUTO ///// 7SM SCT003 M31/M35 A3021 RMK AO1 PRESRR SLP330
METAR CYNL 140900Z AUTO ///// 3SM VV003 M31/M35 A3020 RMK AO1 PRESRR SLP327
SPECI CYNL 140833Z AUTO ///// 3SM VV003 M31/M35 A3018 RMK AO1 SLP321
SPECI CYNL 140824Z AUTO ///// 2 1/2SM VV004 M31/M35 A3018 RMK AO1 SLP321
SPECI CYNL 140823Z AUTO ///// 3SM VV004 M31/M35 A3018 RMK AO1 SLP321
SPECI CYNL 140811Z AUTO ///// 6SM SCT002 M31/M35 A3017 RMK AO1 SLP317
SPECI CYNL 140806Z AUTO ///// 5SM VV002 M31/M35 A3016 RMK AO1 SLP315
SPECI CYNL 140801Z AUTO ///// 7SM FEW002 M31/M35 A3016 RMK AO1 SLP314
METAR CYNL 140800Z AUTO ///// 7SM CLR M31/M35 A3016 RMK AO1 SLP314
METAR CYNL 140700Z AUTO ///// 9SM CLR M31/M36 A3014 RMK AO1 PRESRR SLP309
SPECI CYNL 140616Z AUTO ///// 7SM SCT002 M31/M35 A3012 RMK AO1 PRESRR SLP303
SPECI CYNL 140615Z AUTO ///// 7SM VV002 M31/M35 A3012 RMK AO1 PRESRR SLP304
SPECI CYNL 140609Z AUTO ///// 7SM FEW002 M31/M35 A3012 RMK AO1 PRESRR SLP303
METAR CYNL 140600Z AUTO ///// 9SM CLR M31/M35 A3012 RMK AO1 PRESRR SLP300
METAR CYNL 140500Z AUTO ///// 9SM CLR M30/M34 A3008 RMK AO1 PRESRR SLP289
METAR CYNL 140400Z AUTO ///// 9SM FEW002 M29/M33 A3005 RMK AO1 SLP285
SPECI CYNL 140348Z AUTO ///// 9SM SCT002 M29/M33 A3005 RMK AO1 SLP290
SPECI CYNL 140306Z AUTO ///// 9SM VV002 M29/M33 A3005 RMK AO1 SLP288
METAR CYNL 140300Z AUTO ///// 9SM VV003 M29/M33 A3005 RMK AO1 SLP287
SPECI CYNL 140250Z AUTO ///// 8SM VV003 M29/M33 A3005 RMK AO1 SLP286
SPECI CYNL 140237Z AUTO ///// 9SM SCT003 M29/M33 A3005 RMK AO1 SLP285
SPECI CYNL 140235Z AUTO ///// 9SM SCT003 BKN026 M29/M33 A3004 RMK AO1 SLP284
SPECI CYNL 140230Z AUTO ///// 8SM VV003 M29/M33 A3004 RMK AO1 SLP283
SPECI CYNL 140225Z AUTO ///// 9SM SCT003 BKN025 M29/M33 A3004 RMK AO1 SLP284
SPECI CYNL 140223Z AUTO ///// 9SM VV003 M29/M33 A3004 RMK AO1 SLP284
SPECI CYNL 140218Z AUTO ///// 9SM FEW002 BKN025 M29/M33 A3004 RMK AO1 SLP283
SPECI CYNL 140201Z AUTO ///// 9SM BKN025 M29/M33 A3003 RMK AO1 SLP280
METAR CYNL 140200Z AUTO ///// 9SM SCT025 M29/M33 A3003 RMK AO1 SLP280
METAR CYNL 140100Z AUTO ///// 9SM CLR M29/M33 A3002 RMK AO1 SLP278
METAR CYNL 140000Z AUTO ///// 9SM CLR M27/M31 A3001 RMK AO1 SLP274
SPECI CYNL 132317Z AUTO ///// 9SM SCT026 M25/M29 A3001 RMK AO1 SLP267
METAR CYNL 132300Z AUTO ///// 9SM OVC026 M25/M29 A3000 RMK AO1 SLP266
METAR CYNL 132200Z AUTO ///// 9SM OVC026 M25/M28 A2999 RMK AO1 SLP260
METAR CYNL 132100Z AUTO ///// 9SM OVC027 M25/M29 A3000 RMK AO1 SLP261
METAR CYNL 132000Z AUTO 00000KT 9SM OVC026 M26/M30 A2998 RMK AO1 SLP256
SPECI CYNL 131927Z AUTO ///// 9SM BKN029 OVC035 M27/M31 A2998 RMK AO1 SLP258
METAR CYNL 131900Z AUTO ///// 9SM BKN036 M27/M31 A2999 RMK AO1 SLP261
METAR CYNL 131800Z AUTO 00000KT 9SM CLR M29/M33 A3001 RMK AO1 SLP270
METAR CYNL 131700Z AUTO ///// 9SM CLR M33/M37 A3003 RMK AO1 SLP278
SPECI CYNL 131656Z AUTO 00000KT 3SM CLR M33/M37 A3003 RMK AO1 PRESFR SLP278
SPECI CYNL 131655Z AUTO ///// 1 3/4SM CLR M32/M37 A3003 RMK AO1 PRESFR SLP278
SPECI CYNL 131654Z AUTO ///// 1 1/4SM CLR M32/M37 A3003 RMK AO1 PRESFR SLP279
SPECI CYNL 131652Z AUTO ///// 1 3/4SM CLR M33/M37 A3003 RMK AO1 PRESFR SLP279
SPECI CYNL 131651Z AUTO ///// 2 1/2SM CLR M33/M37 A3003 RMK AO1 PRESFR SLP280
SPECI CYNL 131618Z AUTO 20003KT 6SM CLR M35/M40 A3004 RMK AO1 PRESFR SLP287
SPECI CYNL 131617Z AUTO 20003KT 2 1/2SM CLR M35/M40 A3004 RMK AO1 PRESFR SLP287
SPECI CYNL 131616Z AUTO 20002KT 1 1/2SM CLR M35/M40 A3004 RMK AO1 PRESFR SLP288
SPECI CYNL 131612Z AUTO 22003KT 1 1/4SM CLR M36/M41 A3004 RMK AO1 PRESFR SLP288
SPECI CYNL 131611Z AUTO 22002KT 1 1/2SM CLR M36/M41 A3004 RMK AO1 PRESFR SLP288
SPECI CYNL 131605Z AUTO 22003KT 2 1/2SM CLR M36/M41 A3004 RMK AO1 PRESFR SLP288
METAR CYNL 131600Z AUTO 23004KT 9SM CLR M36/M41 A3005 RMK AO1 PRESFR SLP290
SPECI CYNL 131524Z AUTO 21002KT 3SM FEW036 M36/M41 A3006 RMK AO1 PRESFR SLP293
SPECI CYNL 131523Z AUTO 21002KT 2SM FEW037 M36/M41 A3006 RMK AO1 PRESFR SLP294
SPECI CYNL 131520Z AUTO ///// 1 3/4SM FEW037 M36/M41 A3006 RMK AO1 PRESFR SLP294
SPECI CYNL 131518Z AUTO ///// 2SM FEW037 M36/M41 A3006 RMK AO1 PRESFR SLP293
SPECI CYNL 131513Z AUTO 20002KT 1 3/4SM FEW037 M36/M41 A3006 RMK AO1 PRESFR SLP293
SPECI CYNL 131512Z AUTO 20002KT 2SM FEW037 M36/M41 A3006 RMK AO1 PRESFR SLP293
METAR CYNL 131500Z AUTO 22004KT 9SM SCT037 M35/M40 A3007 RMK AO1 PRESFR SLP295
SPECI CYNL 131435Z AUTO 20003KT 3SM CLR M35/M40 A3008 RMK AO1 PRESFR SLP297
SPECI CYNL 131434Z AUTO 20003KT 2 1/2SM CLR M35/M40 A3008 RMK AO1 PRESFR SLP297
METAR CYNL 131400Z AUTO 14003KT 9SM CLR M38/M43 A3009 RMK AO1 PRESFR SLP304
SPECI CYNL 131332Z AUTO 00000KT 6SM CLR M37/M42 A3010 RMK AO1 PRESFR SLP307
SPECI CYNL 131331Z AUTO 00000KT 1 3/4SM CLR M37/M42 A3011 RMK AO1 PRESFR SLP307
SPECI CYNL 131330Z AUTO 00000KT 1SM CLR M37/M42 A3011 RMK AO1 PRESFR SLP307
SPECI CYNL 131328Z AUTO 00000KT 1 1/4SM CLR M37/M42 A3011 RMK AO1 PRESFR SLP307
SPECI CYNL 131325Z AUTO ///// 2 1/2SM CLR M37/M42 A3011 RMK AO1 PRESFR SLP307
METAR CYNL 131300Z AUTO ///// 9SM CLR M37/M42 A3013 RMK AO1 PRESFR SLP313
METAR CYNL 131200Z AUTO 21003KT 9SM CLR M36/M41 A3015 RMK AO1 PRESFR SLP321
METAR CYNL 131100Z AUTO 00000KT 9SM CLR M35/M40 A3019 RMK AO1 PRESFR SLP331
METAR CYNL 131000Z AUTO 19003KT 9SM CLR M34/M38 A3021 RMK AO1 PRESFR SLP336
METAR CYNL 130900Z AUTO 22003KT 9SM CLR M33/M37 A3024 RMK AO1 PRESFR SLP344
METAR CYNL 130800Z AUTO 24002KT 9SM CLR M33/M37 A3026 RMK AO1 PRESFR SLP352
METAR CYNL 130700Z AUTO 24003KT 9SM CLR M33/M37 A3028 RMK AO1 SLP359
METAR CYNL 130600Z AUTO 25004KT 9SM CLR M31/M36 A3030 RMK AO1 SLP365
METAR CYNL 130500Z AUTO 25004KT 9SM CLR M31/M35 A3031 RMK AO1 SLP367
METAR CYNL 130400Z AUTO ///// 9SM CLR M30/M35 A3033 RMK AO1 PRESFR SLP376
METAR CYNL 130300Z AUTO 24002KT 9SM CLR M29/M33 A3035 RMK AO1 SLP383
METAR CYNL 130200Z AUTO 27005KT 9SM CLR M28/M32 A3037 RMK AO1 SLP388
METAR CYNL 130100Z AUTO ///// 9SM CLR M27/M31 A3037 RMK AO1 SLP389
METAR CYNL 130000Z AUTO ///// 9SM CLR M27/M31 A3037 RMK AO1 SLP388
METAR CYNL 122300Z AUTO 27006KT 9SM CLR M27/M31 A3037 RMK AO1 SLP387
METAR CYNL 122200Z AUTO ///// 9SM CLR M26/M30 A3036 RMK AO1 PRESRR SLP385
METAR CYNL 122100Z AUTO 28011KT 9SM CLR M26/M30 A3033 RMK AO1 SLP375
METAR CYNL 122000Z AUTO 29009KT 9SM CLR M26/M30 A3033 RMK AO1 SLP372
SPECI CYNL 121902Z AUTO 29011G18KT 5SM SCT004 M27/M31 A3032 RMK AO1 SLP372
METAR CYNL 121900Z AUTO 28010G18KT 4SM VV004 M27/M31 A3032 RMK AO1 SLP371
SPECI CYNL 121838Z AUTO 28011KT 8SM SCT004 M27/M31 A3031 RMK AO1 SLP371
SPECI CYNL 121822Z AUTO 28009G17KT 5SM VV004 M28/M32 A3031 RMK AO1 SLP371
SPECI CYNL 121818Z AUTO 28010KT 5SM FEW004 M28/M32 A3031 RMK AO1 SLP371
METAR CYNL 121800Z AUTO 28009G17KT 9SM CLR M28/M32 A3031 RMK AO1 SLP372
METAR CYNL 121700Z AUTO 28011G18KT 5SM FEW004 M29/M34 A3031 RMK AO1 PRESRR SLP373
SPECI CYNL 121642Z AUTO ///// 4SM FEW004 M30/M34 A3030 RMK AO1 PRESRR SLP371
METAR CYNL 121600Z AUTO ///// 5SM CLR M30/M35 A3029 RMK AO1 PRESRR SLP367
METAR CYNL 121500Z AUTO ///// 4SM CLR M31/M35 A3026 RMK AO1 SLP357
SPECI CYNL 121418Z AUTO ///// 4SM SCT004 M31/M35 A3025 RMK AO1 SLP354
SPECI CYNL 121417Z AUTO ///// 3SM VV004 M31/M35 A3025 RMK AO1 SLP354
SPECI CYNL 121415Z AUTO ///// 4SM SCT004 M31/M35 A3025 RMK AO1 SLP354
SPECI CYNL 121414Z AUTO ///// 4SM VV004 M31/M35 A3025 RMK AO1 SLP354
SPECI CYNL 121407Z AUTO ///// 5SM FEW004 M31/M35 A3025 RMK AO1 SLP354
METAR CYNL 121400Z AUTO ///// 6SM CLR M31/M35 A3025 RMK AO1 SLP354
METAR CYNL 121300Z AUTO ///// 3SM SCT004 M31/M36 A3024 RMK AO1 PRESRR SLP351
SPECI CYNL 121254Z AUTO ///// 3SM SCT004 M31/M36 A3024 RMK AO1 SLP350
SPECI CYNL 121215Z AUTO ///// 3SM VV004 M32/M36 A3023 RMK AO1 SLP344
SPECI CYNL 121202Z AUTO ///// 2 1/2SM VV004 M32/M36 A3022 RMK AO1 SLP344
METAR CYNL 121200Z AUTO ///// 3SM VV004 M32/M36 A3022 RMK AO1 SLP344
SPECI CYNL 121150Z AUTO ///// 3SM VV004 M32/M36 A3021 RMK AO1 PRESRR SLP341
SPECI CYNL 121134Z AUTO ///// 2 1/2SM VV004 M32/M36 A3021 RMK AO1 PRESRR SLP340
SPECI CYNL 121133Z AUTO ///// 3SM VV004 M32/M36 A3021 RMK AO1 PRESRR SLP340
SPECI CYNL 121130Z AUTO ///// 2 1/2SM BKN004 M32/M36 A3021 RMK AO1 PRESRR SLP339
SPECI CYNL 121121Z AUTO ///// 3SM BKN004 M32/M36 A3021 RMK AO1 PRESRR SLP339
METAR CYNL 121100Z AUTO ///// 2 1/2SM VV004 M32/M36 A3020 RMK AO1 PRESRR SLP337
SPECI CYNL 121059Z AUTO ///// 2 1/2SM VV004 M32/M36 A3020 RMK AO1 PRESRR SLP337
SPECI CYNL 121058Z AUTO ///// 3SM VV004 M32/M36 A3020 RMK AO1 PRESRR SLP337
SPECI CYNL 121057Z AUTO ///// 2 1/2SM VV004 M32/M36 A3020 RMK AO1 SLP337
SPECI CYNL 121051Z AUTO ///// 3SM FEW004 M32/M36 A3020 RMK AO1 SLP337
METAR CYNL 121000Z AUTO ///// 3SM CLR M32/M36 A3018 RMK AO1 SLP329
SPECI CYNL 120904Z AUTO ///// 5SM FEW004 M32/M36 A3018 RMK AO1 SLP327
METAR CYNL 120900Z AUTO ///// 5SM CLR M32/M36 A3018 RMK AO1 SLP327
SPECI CYNL 120837Z AUTO ///// 6SM SCT004 M32/M36 A3017 RMK AO1 SLP323
SPECI CYNL 120827Z AUTO ///// 3SM VV004 M32/M36 A3016 RMK AO1 SLP322
SPECI CYNL 120824Z AUTO ///// 2 1/2SM VV004 M32/M36 A3016 RMK AO1 SLP321
SPECI CYNL 120823Z AUTO ///// 3SM VV004 M32/M36 A3016 RMK AO1 SLP321
SPECI CYNL 120820Z AUTO ///// 3SM VV005 M32/M36 A3016 RMK AO1 SLP321
SPECI CYNL 120814Z AUTO ///// 6SM FEW005 M32/M36 A3016 RMK AO1 SLP320
METAR CYNL 120800Z AUTO ///// 8SM CLR M32/M36 A3016 RMK AO1 SLP319
SPECI CYNL 120713Z AUTO ///// 5SM SCT005 M32/M36 A3015 RMK AO1 SLP317
METAR CYNL 120700Z AUTO ///// 4SM VV005 M32/M36 A3015 RMK AO1 SLP318
SPECI CYNL 120642Z AUTO ///// 3SM VV006 M32/M36 A3015 RMK AO1 SLP318
SPECI CYNL 120641Z AUTO ///// 2 1/2SM VV006 M32/M36 A3015 RMK AO1 SLP318
METAR CYNL 120600Z AUTO ///// 3SM VV007 M32/M36 A3014 RMK AO1 SLP314
SPECI CYNL 120556Z AUTO ///// 3SM VV007 M32/M36 A3013 RMK AO1 SLP315
SPECI CYNL 120554Z AUTO ///// 2 1/2SM VV007 M32/M36 A3013 RMK AO1 SLP314
SPECI CYNL 120519Z AUTO ///// 4SM VV005 M32/M36 A3012 RMK AO1 SLP311
SPECI CYNL 120514Z AUTO ///// 4SM FEW005 M32/M36 A3013 RMK AO1 SLP312
METAR CYNL 120500Z AUTO ///// 6SM CLR M32/M36 A3012 RMK AO1 SLP310
SPECI CYNL 120402Z AUTO ///// 8SM SCT006 M31/M36 A3011 RMK AO1 SLP308
METAR CYNL 120400Z AUTO ///// 8SM BKN006 M31/M36 A3011 RMK AO1 SLP307
SPECI CYNL 120332Z AUTO ///// 5SM VV006 M31/M36 A3011 RMK AO1 SLP306
SPECI CYNL 120327Z AUTO ///// 7SM FEW007 M31/M35 A3011 RMK AO1 SLP306
METAR CYNL 120300Z AUTO ///// 9SM CLR M31/M35 A3010 RMK AO1 SLP305
SPECI CYNL 120231Z AUTO ///// 5SM FEW004 SCT007 M31/M35 A3010 RMK AO1 SLP305
SPECI CYNL 120227Z AUTO ///// 4SM BKN006 M31/M35 A3010 RMK AO1 SLP305
SPECI CYNL 120221Z AUTO ///// 6SM FEW004 SCT007 M31/M35 A3011 RMK AO1 SLP307
SPECI CYNL 120216Z AUTO ///// 3SM VV006 M31/M35 A3011 RMK AO1 SLP307
SPECI CYNL 120214Z AUTO ///// 2 1/2SM VV006 M31/M35 A3011 RMK AO1 SLP306
SPECI CYNL 120212Z AUTO ///// 2 1/2SM FEW004 SCT007 M31/M35 A3010 RMK AO1 SLP306
METAR CYNL 120200Z AUTO ///// 3SM SCT005 M31/M35 A3011 RMK AO1 SLP306
SPECI CYNL 120153Z AUTO ///// 4SM FEW006 SCT012 M31/M35 A3011 RMK AO1 SLP306
SPECI CYNL 120152Z AUTO ///// 4SM VV009 M31/M35 A3010 RMK AO1 SLP306
SPECI CYNL 120144Z AUTO ///// 3SM FEW005 M31/M35 A3010 RMK AO1 SLP305
SPECI CYNL 120143Z AUTO ///// 2 1/2SM FEW005 M31/M35 A3010 RMK AO1 SLP305
SPECI CYNL 120142Z AUTO ///// 3SM FEW005 M31/M35 A3010 RMK AO1 SLP305
METAR CYNL 120100Z AUTO ///// 9SM CLR M30/M35 A3010 RMK AO1 SLP304
METAR CYNL 120000Z AUTO ///// 9SM CLR M30/M35 A3010 RMK AO1 SLP304
METAR CYNL 112300Z AUTO ///// 9SM CLR M31/M35 A3009 RMK AO1 SLP301
METAR CYNL 112200Z AUTO ///// 9SM FEW008 M30/M34 A3009 RMK AO1 SLP300
SPECI CYNL 112159Z AUTO ///// 9SM FEW008 M30/M34 A3009 RMK AO1 SLP300
METAR CYNL 112100Z AUTO 28008KT 9SM CLR M29/M34 A3008 RMK AO1 SLP295
METAR CYNL 112000Z AUTO 27010KT 9SM CLR M30/M34 A3009 RMK AO1 SLP300
METAR CYNL 111900Z AUTO 28011G18KT 6SM CLR M31/M35 A3010 RMK AO1 SLP303
METAR CYNL 111800Z AUTO 28009KT 7SM CLR M31/M36 A3012 RMK AO1 SLP309
METAR CYNL 111700Z AUTO ///// 5SM FEW005 M32/M37 A3012 RMK AO1 SLP311
SPECI CYNL 111656Z AUTO ///// 5SM FEW005 M32/M37 A3011 RMK AO1 SLP311
METAR CYNL 111600Z AUTO ///// 8SM CLR M33/M37 A3011 RMK AO1 SLP310
METAR CYNL 111500Z AUTO ///// 9SM CLR M33/M38 A3011 RMK AO1 SLP309
METAR CYNL 111400Z AUTO ///// 9SM CLR M33/M38 A3011 RMK AO1 SLP309
METAR CYNL 111300Z AUTO 27009KT 9SM CLR M33/M38 A3011 RMK AO1 SLP310
METAR CYNL 111200Z AUTO 27008KT 9SM CLR M33/M38 A3012 RMK AO1 SLP310
METAR CYNL 111100Z AUTO ///// 9SM CLR M33/M38 A3011 RMK AO1 SLP311
METAR CYNL 111000Z AUTO ///// 9SM FEW007 M33/M38 A3012 RMK AO1 SLP312
SPECI CYNL 110941Z AUTO ///// 8SM SCT007 M33/M38 A3012 RMK AO1 SLP312
SPECI CYNL 110932Z AUTO ///// 6SM VV006 M33/M38 A3012 RMK AO1 SLP312
SPECI CYNL 110927Z AUTO ///// 5SM FEW007 M33/M38 A3012 RMK AO1 SLP312
METAR CYNL 110900Z AUTO ///// 9SM CLR M33/M38 A3012 RMK AO1 SLP311
METAR CYNL 110800Z AUTO 27008KT 9SM CLR M33/M38 A3010 RMK AO1 SLP306
METAR CYNL 110700Z AUTO ///// 7SM CLR M33/M37 A3010 RMK AO1 SLP304
METAR CYNL 110600Z AUTO ///// 6SM CLR M33/M37 A3009 RMK AO1 SLP303
METAR CYNL 110500Z AUTO ///// 8SM CLR M33/M37 A3009 RMK AO1 SLP303
SPECI CYNL 110414Z AUTO ///// 5SM FEW005 M33/M37 A3009 RMK AO1 SLP304
METAR CYNL 110400Z AUTO 28008G15KT 9SM CLR M33/M37 A3009 RMK AO1 SLP303
METAR CYNL 110300Z AUTO ///// 8SM CLR M32/M37 A3008 RMK AO1 SLP300
METAR CYNL 110200Z AUTO 28005KT 9SM CLR M32/M37 A3008 RMK AO1 SLP299
METAR CYNL 110100Z AUTO ///// 9SM CLR M32/M36 A3007 RMK AO1 SLP295
METAR CYNL 110000Z AUTO 26005KT 9SM CLR M33/M37 A3007 RMK AO1 SLP295
METAR CYNL 102300Z AUTO 26006KT 9SM CLR M33/M37 A3007 RMK AO1 SLP295
SPECI CYNL 102234Z AUTO 25006KT 3SM FEW003 M33/M37 A3007 RMK AO1 SLP293
METAR CYNL 102200Z AUTO ///// 7SM CLR M33/M37 A3006 RMK AO1 SLP289
METAR CYNL 102100Z AUTO ///// 9SM CLR M32/M36 A3004 RMK AO1 SLP281
METAR CYNL 102000Z AUTO ///// 6SM CLR M32/M36 A3004 RMK AO1 SLP279
METAR CYNL 101900Z AUTO ///// 6SM CLR M32/M37 A3004 RMK AO1 SLP277
SPECI CYNL 101809Z AUTO ///// 5SM FEW004 M32/M37 A3003 RMK AO1 SLP276
METAR CYNL 101800Z AUTO ///// 5SM CLR M33/M37 A3003 RMK AO1 SLP275
METAR CYNL 101700Z AUTO ///// 9SM CLR M33/M38 A3002 RMK AO1 SLP273
METAR CYNL 101600Z AUTO 27006KT 9SM CLR M34/M38 A3001 RMK AO1 PRESRR SLP270
METAR CYNL 101500Z AUTO 28005KT 8SM CLR M33/M38 A2999 RMK AO1 SLP262
METAR CYNL 101400Z AUTO 29006KT 9SM CLR M33/M38 A2998 RMK AO1 SLP258
METAR CYNL 101300Z AUTO 29006KT 5SM CLR M33/M37 A2997 RMK AO1 SLP254
METAR CYNL 101200Z AUTO ///// 9SM CLR M32/M36 A2996 RMK AO1 SLP248
METAR CYNL 101100Z AUTO ///// 9SM CLR M32/M36 A2996 RMK AO1 SLP246
METAR CYNL 101000Z AUTO ///// 9SM CLR M31/M35 A2994 RMK AO1 SLP241
METAR CYNL 100900Z AUTO ///// 9SM CLR M30/M34 A2994 RMK AO1 SLP237
METAR CYNL 100800Z AUTO ///// 9SM CLR M29/M33 A2993 RMK AO1 SLP233
METAR CYNL 100700Z AUTO ///// 9SM CLR M29/M33 A2993 RMK AO1 SLP231
METAR CYNL 100600Z AUTO ///// 9SM CLR M28/M32 A2993 RMK AO1 SLP231
SPECI CYNL 100516Z AUTO ///// 6SM FEW008 SCT014 M28/M32 A2992 RMK AO1 SLP228
SPECI CYNL 100515Z AUTO ///// 6SM FEW008 BKN014 M28/M32 A2992 RMK AO1 SLP228
SPECI CYNL 100514Z AUTO ///// 6SM FEW008 SCT014 M28/M32 A2992 RMK AO1 SLP227
SPECI CYNL 100513Z AUTO ///// 6SM FEW008 BKN014 M28/M32 A2992 RMK AO1 SLP227
SPECI CYNL 100501Z AUTO ///// 5SM VV012 M28/M32 A2992 RMK AO1 SLP226
METAR CYNL 100500Z AUTO ///// 5SM FEW009 M28/M32 A2992 RMK AO1 SLP227
SPECI CYNL 100418Z AUTO ///// 9SM SCT007 M27/M31 A2991 RMK AO1 SLP227
SPECI CYNL 100411Z AUTO ///// 7SM SCT008 BKN014 M27/M31 A2991 RMK AO1 SLP227
SPECI CYNL 100401Z AUTO ///// 5SM VV009 M27/M31 A2991 RMK AO1 SLP227
METAR CYNL 100400Z AUTO ///// 5SM VV010 M27/M31 A2991 RMK AO1 SLP227
SPECI CYNL 100349Z AUTO ///// 3SM VV014 M27/M31 A2991 RMK AO1 SLP230
SPECI CYNL 100347Z AUTO ///// 3SM VV015 M27/M31 A2991 RMK AO1 SLP230
SPECI CYNL 100341Z AUTO ///// 2 1/2SM VV017 M27/M31 A2992 RMK AO1 SLP231
SPECI CYNL 100307Z AUTO ///// 5SM VV023 M27/M31 A2991 RMK AO1 SLP229
METAR CYNL 100300Z AUTO ///// 6SM CLR M27/M31 A2991 RMK AO1 SLP228
SPECI CYNL 100214Z AUTO ///// 6SM SCT007 M27/M31 A2991 RMK AO1 PRESFR SLP226
METAR CYNL 100200Z AUTO ///// 6SM VV007 M27/M31 A2991 RMK AO1 PRESFR SLP227
SPECI CYNL 100152Z AUTO ///// 3SM VV008 M27/M31 A2991 RMK AO1 SLP226
SPECI CYNL 100150Z AUTO ///// 2 1/2SM VV008 M27/M31 A2991 RMK AO1 SLP227
SPECI CYNL 100148Z AUTO ///// 3SM VV009 M27/M31 A2991 RMK AO1 SLP227
SPECI CYNL 100140Z AUTO ///// 5SM VV014 M27/M31 A2991 RMK AO1 SLP228
SPECI CYNL 100122Z AUTO ///// 6SM FEW006 SCT013 BKN024 M27/M31 A2992 RMK AO1 SLP230
SPECI CYNL 100114Z AUTO ///// 6SM FEW006 SCT014 M27/M31 A2992 RMK AO1 SLP230
SPECI CYNL 100111Z AUTO ///// 7SM FEW007 SCT010 BKN020 M27/M31 A2992 RMK AO1 SLP231
SPECI CYNL 100107Z AUTO ///// 7SM FEW007 SCT010 BKN014 M27/M31 A2992 RMK AO1 SLP231
SPECI CYNL 100104Z AUTO ///// 6SM VV009 M27/M31 A2993 RMK AO1 SLP232
METAR CYNL 100100Z AUTO ///// 5SM VV012 M27/M31 A2993 RMK AO1 SLP233
SPECI CYNL 100058Z AUTO ///// 5SM VV013 M27/M31 A2993 RMK AO1 SLP232
SPECI CYNL 100051Z AUTO ///// 5SM VV015 M27/M31 A2993 RMK AO1 SLP232
SPECI CYNL 100048Z AUTO ///// 4SM VV011 M27/M31 A2993 RMK AO1 SLP232
SPECI CYNL 100044Z AUTO ///// 6SM FEW008 M27/M31 A2993 RMK AO1 SLP232
METAR CYNL 100000Z AUTO ///// 9SM CLR M27/M31 A2993 RMK AO1 SLP232
METAR CYNL 092300Z AUTO 00000KT 9SM CLR M27/M31 A2993 RMK AO1 SLP233
METAR CYNL 092200Z AUTO ///// 9SM CLR M27/M31 A2994 RMK AO1 SLP234
METAR CYNL 092100Z AUTO ///// 9SM CLR M26/M30 A2993 RMK AO1 SLP231
METAR CYNL 092000Z AUTO ///// 9SM CLR M27/M31 A2994 RMK AO1 SLP235
METAR CYNL 091900Z AUTO ///// 9SM CLR M27/M31 A2996 RMK AO1 PRESFR SLP239
METAR CYNL 091800Z AUTO ///// 9SM CLR M27/M31 A2999 RMK AO1 SLP247
METAR CYNL 091700Z AUTO ///// 9SM CLR M29/M33 A2998 RMK AO1 SLP246
METAR CYNL 091600Z AUTO 30006KT 9SM CLR M30/M34 A2999 RMK AO1 SLP250
METAR CYNL 091500Z AUTO 33002KT 9SM CLR M30/M34 A2998 RMK AO1 SLP244
METAR CYNL 091400Z AUTO 31004KT 9SM CLR M29/M33 A2999 RMK AO1 SLP245
METAR CYNL 091300Z AUTO ///// 9SM CLR M28/M32 A3000 RMK AO1 SLP246
METAR CYNL 091200Z AUTO ///// 9SM CLR M28/M32 A2999 RMK AO1 SLP243
METAR CYNL 091100Z AUTO ///// 9SM CLR M28/M32 A3000 RMK AO1 SLP244
METAR CYNL 091000Z AUTO ///// 9SM CLR M28/M31 A2999 RMK AO1 SLP237
METAR CYNL 090900Z AUTO ///// 9SM CLR M27/M31 A2999 RMK AO1 PRESRR SLP236
METAR CYNL 090800Z AUTO ///// 9SM CLR M26/M30 A2997 RMK AO1 SLP227
METAR CYNL 090700Z AUTO ///// 9SM CLR M25/M29 A2995 RMK AO1 SLP220
METAR CYNL 090600Z AUTO 33006KT 9SM CLR M24/M28 A2995 RMK AO1 PRESRR SLP218
METAR CYNL 090500Z AUTO 31006KT 9SM CLR M23/M26 A2993 RMK AO1 PRESRR SLP210
METAR CYNL 090400Z AUTO 32005KT 9SM OVC034 M22/M25 A2989 RMK AO1 SLP199
METAR CYNL 090300Z AUTO 33005KT 9SM BKN130 M21/M24 A2988 RMK AO1 PRESRR SLP195
SPECI CYNL 090237Z AUTO 33007KT 9SM SCT011 BKN130 M20/M23 A2988 RMK AO1 PRESRR SLP192
SPECI CYNL 090229Z AUTO 32007KT 9SM BKN011 BKN130 M20/M23 A2987 RMK AO1 PRESRR SLP191
METAR CYNL 090200Z AUTO 33008KT 9SM FEW011 BKN130 M20/M23 A2986 RMK AO1 PRESRR SLP185
SPECI CYNL 090102Z AUTO 34007KT 9SM FEW006 SCT009 M19/M22 A2984 RMK AO1 SLP177
METAR CYNL 090100Z AUTO 33006KT 9SM FEW006 SCT009 BKN011 M19/M22 A2983 RMK AO1 SLP176
SPECI CYNL 090059Z AUTO 33006KT 9SM FEW006 SCT009 BKN012 M19/M22 A2983 RMK AO1 SLP176
SPECI CYNL 090051Z AUTO ///// 4SM VV009 M19/M22 A2983 RMK AO1 PRESRR SLP176
SPECI CYNL 090043Z AUTO 34009KT 4SM VV010 M19/M22 A2983 RMK AO1 PRESRR SLP176
SPECI CYNL 090038Z AUTO 34007KT 4SM VV009 M19/M22 A2983 RMK AO1 PRESRR SLP174
SPECI CYNL 090033Z AUTO 34010KT 3SM VV014 M19/M22 A2983 RMK AO1 PRESRR SLP174
SPECI CYNL 090032Z AUTO 34010KT 3SM VV015 M19/M22 A2983 RMK AO1 PRESRR SLP174
SPECI CYNL 090024Z AUTO ///// 2SM VV016 M19/M22 A2983 RMK AO1 PRESRR SLP173
SPECI CYNL 090023Z AUTO ///// 1 3/4SM VV016 M19/M22 A2983 RMK AO1 PRESRR SLP173
SPECI CYNL 090006Z AUTO ///// 2 1/2SM VV015 M19/M22 A2982 RMK AO1 PRESRR SLP171
METAR CYNL 090000Z AUTO ///// 2SM VV010 M18/M21 A2982 RMK AO1 PRESRR SLP170
SPECI CYNL 082344Z AUTO 33011KT 2 1/2SM VV012 M18/M21 A2981 RMK AO1 PRESRR SLP166
SPECI CYNL 082342Z AUTO 32010KT 3SM VV014 M18/M21 A2981 RMK AO1 PRESRR SLP166
SPECI CYNL 082337Z AUTO 32008KT 4SM VV015 M18/M21 A2980 RMK AO1 PRESRR SLP164
SPECI CYNL 082330Z AUTO 31008KT 3SM VV012 M18/M21 A2980 RMK AO1 PRESRR SLP163
SPECI CYNL 082319Z AUTO 31005KT 2 1/2SM VV012 M18/M20 A2979 RMK AO1 PRESRR SLP161
SPECI CYNL 082315Z AUTO 30005KT 3SM VV011 M18/M20 A2979 RMK AO1 PRESRR SLP160
SPECI CYNL 082304Z AUTO 32005KT 2SM VV012 M17/M20 A2979 RMK AO1 PRESRR SLP158
SPECI CYNL 082303Z AUTO 32004KT 1 3/4SM VV012 M17/M20 A2979 RMK AO1 PRESRR SLP158
SPECI CYNL 082302Z AUTO 32004KT 2SM VV013 M17/M20 A2979 RMK AO1 PRESRR SLP157
SPECI CYNL 082301Z AUTO 33005KT 1 3/4SM VV014 M17/M20 A2979 RMK AO1 PRESRR SLP157
METAR CYNL 082300Z AUTO 32005KT 1 3/4SM VV015 M17/M20 A2978 RMK AO1 PRESRR SLP157
SPECI CYNL 082258Z AUTO 33004KT 1 3/4SM VV017 M17/M20 A2978 RMK AO1 PRESRR SLP158
SPECI CYNL 082253Z AUTO ///// 2 1/2SM VV022 M17/M20 A2979 RMK AO1 SLP158
SPECI CYNL 082250Z AUTO ///// 3SM VV024 M17/M20 A2979 RMK AO1 SLP158
SPECI CYNL 082243Z AUTO ///// 3SM VV026 M17/M20 A2978 RMK AO1 SLP157
SPECI CYNL 082235Z AUTO 33008KT 3SM VV019 M17/M20 A2978 RMK AO1 SLP155
SPECI CYNL 082225Z AUTO ///// 2SM VV023 M17/M19 A2977 RMK AO1 SLP151
SPECI CYNL 082223Z AUTO 32006KT 2 1/2SM VV029 M17/M19 A2977 RMK AO1 SLP151
SPECI CYNL 082222Z AUTO 32007KT 2 1/2SM VV033 M17/M19 A2977 RMK AO1 SLP151
SPECI CYNL 082218Z AUTO 31007KT 6SM VV031 M17/M19 A2977 RMK AO1 SLP152
SPECI CYNL 082216Z AUTO 31004KT 7SM VV026 M17/M19 A2977 RMK AO1 SLP153
SPECI CYNL 082203Z AUTO 33003KT 3SM VV022 M16/M19 A2976 RMK AO1 SLP148
METAR CYNL 082200Z AUTO 31003KT 2 1/2SM VV020 M16/M19 A2976 RMK AO1 SLP147
SPECI CYNL 082156Z AUTO 31004KT 2SM VV017 M16/M19 A2976 RMK AO1 SLP148
SPECI CYNL 082155Z AUTO ///// 1 3/4SM VV017 M16/M19 A2976 RMK AO1 SLP148
SPECI CYNL 082154Z AUTO ///// 2SM VV017 M16/M19 A2975 RMK AO1 SLP148
SPECI CYNL 082137Z AUTO 31006KT 1 3/4SM VV021 M16/M19 A2975 RMK AO1 SLP147
SPECI CYNL 082127Z AUTO 31005KT 2SM VV019 M16/M19 A2975 RMK AO1 SLP147
SPECI CYNL 082116Z AUTO 31002KT 1 3/4SM VV018 M16/M19 A2975 RMK AO1 SLP146
SPECI CYNL 082115Z AUTO 31003KT 2SM VV016 M16/M19 A2975 RMK AO1 SLP145
SPECI CYNL 082114Z AUTO 31003KT 1 3/4SM VV015 M16/M19 A2975 RMK AO1 SLP145
SPECI CYNL 082110Z AUTO 29003KT 1 3/4SM VV013 M16/M19 A2975 RMK AO1 SLP145
SPECI CYNL 082109Z AUTO 30003KT 2SM VV014 M16/M19 A2975 RMK AO1 SLP145
SPECI CYNL 082106Z AUTO 30004KT 2 1/2SM VV018 M16/M19 A2975 RMK AO1 SLP145
SPECI CYNL 082102Z AUTO 30003KT 4SM VV024 M16/M19 A2975 RMK AO1 SLP145
METAR CYNL 082100Z AUTO 29003KT 5SM VV026 M16/M19 A2975 RMK AO1 SLP145
SPECI CYNL 082059Z AUTO 29003KT 6SM VV025 M16/M19 A2975 RMK AO1 SLP145
SPECI CYNL 082053Z AUTO 30004KT 6SM VV015 M16/M19 A2975 RMK AO1 SLP143
SPECI CYNL 082050Z AUTO 30004KT 4SM VV014 M16/M19 A2974 RMK AO1 SLP142
SPECI CYNL 082043Z AUTO 31004KT 4SM VV018 M16/M19 A2974 RMK AO1 SLP142
SPECI CYNL 082029Z AUTO 30003KT 2 1/2SM VV023 M16/M19 A2974 RMK AO1 SLP142